<?xml version="1.0" encoding="UTF-8" standalone="no" ?>
<gpx xmlns="http://www.topografix.com/GPX/1/1" xmlns:xsi="http://www.w3.org/2001/XMLSchema-instance" xsi:schemaLocation="http://www.topografix.com/GPX/1/1 http://www.topografix.com/GPX/1/1/gpx.xsd" version="1.1" creator="VisuGPX - https://www.visugpx.com">
  <metadata>
    <name>M - 83 - VIDAUBAN Bois de Bouis</name>
  </metadata>
  <wpt lat="43.39689" lon="6.45487">
    <ele>91</ele>
    <name><![CDATA[Point de passage 1]]></name>
    <type><![CDATA[GENERIC]]></type>
  </wpt>
  <wpt lat="43.39663" lon="6.45446">
    <ele>88</ele>
    <name><![CDATA[Point de passage 2]]></name>
    <type><![CDATA[GENERIC]]></type>
  </wpt>
  <trk>
    <name><![CDATA[Rando galette bois de Bouis ]]></name>
    <trkseg>
      <trkpt lat="43.39689" lon="6.45487">
        <ele>91</ele>
        <time>2026-01-21T13:00:47.000Z</time>
      </trkpt>
      <trkpt lat="43.3969" lon="6.45489">
        <ele>90</ele>
        <time>2026-01-21T13:00:50.000Z</time>
      </trkpt>
      <trkpt lat="43.39698" lon="6.45497">
        <ele>90</ele>
        <time>2026-01-21T13:01:02.000Z</time>
      </trkpt>
      <trkpt lat="43.39706" lon="6.45506">
        <ele>90</ele>
        <time>2026-01-21T13:01:14.000Z</time>
      </trkpt>
      <trkpt lat="43.39713" lon="6.45518">
        <ele>91</ele>
        <time>2026-01-21T13:01:26.000Z</time>
      </trkpt>
      <trkpt lat="43.39722" lon="6.45528">
        <ele>91</ele>
        <time>2026-01-21T13:01:35.000Z</time>
      </trkpt>
      <trkpt lat="43.39729" lon="6.45538">
        <ele>92</ele>
        <time>2026-01-21T13:01:44.000Z</time>
      </trkpt>
      <trkpt lat="43.39736" lon="6.45551">
        <ele>92</ele>
        <time>2026-01-21T13:01:53.000Z</time>
      </trkpt>
      <trkpt lat="43.39734" lon="6.45564">
        <ele>93</ele>
        <time>2026-01-21T13:02:14.000Z</time>
      </trkpt>
      <trkpt lat="43.3973" lon="6.45576">
        <ele>93</ele>
        <time>2026-01-21T13:02:23.000Z</time>
      </trkpt>
      <trkpt lat="43.39726" lon="6.45586">
        <ele>93</ele>
        <time>2026-01-21T13:02:32.000Z</time>
      </trkpt>
      <trkpt lat="43.39721" lon="6.45596">
        <ele>94</ele>
        <time>2026-01-21T13:02:38.000Z</time>
      </trkpt>
      <trkpt lat="43.39714" lon="6.45607">
        <ele>94</ele>
        <time>2026-01-21T13:02:47.000Z</time>
      </trkpt>
      <trkpt lat="43.39706" lon="6.45616">
        <ele>95</ele>
        <time>2026-01-21T13:02:56.000Z</time>
      </trkpt>
      <trkpt lat="43.39696" lon="6.45617">
        <ele>96</ele>
        <time>2026-01-21T13:03:08.000Z</time>
      </trkpt>
      <trkpt lat="43.39687" lon="6.4561">
        <ele>96</ele>
        <time>2026-01-21T13:03:17.000Z</time>
      </trkpt>
      <trkpt lat="43.39679" lon="6.45604">
        <ele>96</ele>
        <time>2026-01-21T13:03:26.000Z</time>
      </trkpt>
      <trkpt lat="43.39671" lon="6.45596">
        <ele>96</ele>
        <time>2026-01-21T13:03:32.000Z</time>
      </trkpt>
      <trkpt lat="43.39662" lon="6.4559">
        <ele>96</ele>
        <time>2026-01-21T13:03:41.000Z</time>
      </trkpt>
      <trkpt lat="43.39652" lon="6.45583">
        <ele>96</ele>
        <time>2026-01-21T13:03:50.000Z</time>
      </trkpt>
      <trkpt lat="43.39642" lon="6.45577">
        <ele>96</ele>
        <time>2026-01-21T13:03:59.000Z</time>
      </trkpt>
      <trkpt lat="43.39633" lon="6.45573">
        <ele>97</ele>
        <time>2026-01-21T13:04:08.000Z</time>
      </trkpt>
      <trkpt lat="43.39622" lon="6.45571">
        <ele>97</ele>
        <time>2026-01-21T13:04:17.000Z</time>
      </trkpt>
      <trkpt lat="43.39611" lon="6.4557">
        <ele>98</ele>
        <time>2026-01-21T13:04:26.000Z</time>
      </trkpt>
      <trkpt lat="43.396" lon="6.45568">
        <ele>98</ele>
        <time>2026-01-21T13:04:35.000Z</time>
      </trkpt>
      <trkpt lat="43.39589" lon="6.45567">
        <ele>98</ele>
        <time>2026-01-21T13:04:45.000Z</time>
      </trkpt>
      <trkpt lat="43.39578" lon="6.45565">
        <ele>98</ele>
        <time>2026-01-21T13:04:54.000Z</time>
      </trkpt>
      <trkpt lat="43.39566" lon="6.45564">
        <ele>98</ele>
        <time>2026-01-21T13:05:03.000Z</time>
      </trkpt>
      <trkpt lat="43.39554" lon="6.45562">
        <ele>98</ele>
        <time>2026-01-21T13:05:12.000Z</time>
      </trkpt>
      <trkpt lat="43.39542" lon="6.4556">
        <ele>98</ele>
        <time>2026-01-21T13:05:21.000Z</time>
      </trkpt>
      <trkpt lat="43.3953" lon="6.45558">
        <ele>97</ele>
        <time>2026-01-21T13:05:33.000Z</time>
      </trkpt>
      <trkpt lat="43.39519" lon="6.45556">
        <ele>97</ele>
        <time>2026-01-21T13:05:42.000Z</time>
      </trkpt>
      <trkpt lat="43.39508" lon="6.45555">
        <ele>96</ele>
        <time>2026-01-21T13:05:51.000Z</time>
      </trkpt>
      <trkpt lat="43.39496" lon="6.45555">
        <ele>96</ele>
        <time>2026-01-21T13:06:00.000Z</time>
      </trkpt>
      <trkpt lat="43.39484" lon="6.45556">
        <ele>96</ele>
        <time>2026-01-21T13:06:09.000Z</time>
      </trkpt>
      <trkpt lat="43.39474" lon="6.4556">
        <ele>97</ele>
        <time>2026-01-21T13:06:18.000Z</time>
      </trkpt>
      <trkpt lat="43.39466" lon="6.45567">
        <ele>97</ele>
        <time>2026-01-21T13:06:27.000Z</time>
      </trkpt>
      <trkpt lat="43.39461" lon="6.45579">
        <ele>97</ele>
        <time>2026-01-21T13:06:36.000Z</time>
      </trkpt>
      <trkpt lat="43.39457" lon="6.45591">
        <ele>97</ele>
        <time>2026-01-21T13:06:54.000Z</time>
      </trkpt>
      <trkpt lat="43.39452" lon="6.45606">
        <ele>97</ele>
        <time>2026-01-21T13:07:03.000Z</time>
      </trkpt>
      <trkpt lat="43.39447" lon="6.45621">
        <ele>97</ele>
        <time>2026-01-21T13:07:12.000Z</time>
      </trkpt>
      <trkpt lat="43.39441" lon="6.45634">
        <ele>96</ele>
        <time>2026-01-21T13:07:21.000Z</time>
      </trkpt>
      <trkpt lat="43.39432" lon="6.45644">
        <ele>96</ele>
        <time>2026-01-21T13:07:30.000Z</time>
      </trkpt>
      <trkpt lat="43.39422" lon="6.45649">
        <ele>96</ele>
        <time>2026-01-21T13:07:39.000Z</time>
      </trkpt>
      <trkpt lat="43.39413" lon="6.45648">
        <ele>96</ele>
        <time>2026-01-21T13:07:45.000Z</time>
      </trkpt>
      <trkpt lat="43.39405" lon="6.45642">
        <ele>96</ele>
        <time>2026-01-21T13:07:51.000Z</time>
      </trkpt>
      <trkpt lat="43.394" lon="6.45631">
        <ele>97</ele>
        <time>2026-01-21T13:08:00.000Z</time>
      </trkpt>
      <trkpt lat="43.39398" lon="6.45619">
        <ele>97</ele>
        <time>2026-01-21T13:08:06.000Z</time>
      </trkpt>
      <trkpt lat="43.39399" lon="6.45607">
        <ele>97</ele>
        <time>2026-01-21T13:08:12.000Z</time>
      </trkpt>
      <trkpt lat="43.39399" lon="6.45592">
        <ele>97</ele>
        <time>2026-01-21T13:08:21.000Z</time>
      </trkpt>
      <trkpt lat="43.39396" lon="6.45579">
        <ele>97</ele>
        <time>2026-01-21T13:08:30.000Z</time>
      </trkpt>
      <trkpt lat="43.3939" lon="6.45566">
        <ele>98</ele>
        <time>2026-01-21T13:08:39.000Z</time>
      </trkpt>
      <trkpt lat="43.39384" lon="6.45554">
        <ele>97</ele>
        <time>2026-01-21T13:08:48.000Z</time>
      </trkpt>
      <trkpt lat="43.39379" lon="6.45543">
        <ele>96</ele>
        <time>2026-01-21T13:08:54.000Z</time>
      </trkpt>
      <trkpt lat="43.39374" lon="6.4553">
        <ele>96</ele>
        <time>2026-01-21T13:09:06.000Z</time>
      </trkpt>
      <trkpt lat="43.39368" lon="6.45519">
        <ele>95</ele>
        <time>2026-01-21T13:09:12.000Z</time>
      </trkpt>
      <trkpt lat="43.3936" lon="6.45507">
        <ele>95</ele>
        <time>2026-01-21T13:09:21.000Z</time>
      </trkpt>
      <trkpt lat="43.39351" lon="6.45498">
        <ele>95</ele>
        <time>2026-01-21T13:09:30.000Z</time>
      </trkpt>
      <trkpt lat="43.39343" lon="6.45492">
        <ele>96</ele>
        <time>2026-01-21T13:09:36.000Z</time>
      </trkpt>
      <trkpt lat="43.39332" lon="6.45487">
        <ele>96</ele>
        <time>2026-01-21T13:09:45.000Z</time>
      </trkpt>
      <trkpt lat="43.39322" lon="6.45484">
        <ele>96</ele>
        <time>2026-01-21T13:09:54.000Z</time>
      </trkpt>
      <trkpt lat="43.39311" lon="6.45483">
        <ele>95</ele>
        <time>2026-01-21T13:10:03.000Z</time>
      </trkpt>
      <trkpt lat="43.39299" lon="6.45485">
        <ele>95</ele>
        <time>2026-01-21T13:10:12.000Z</time>
      </trkpt>
      <trkpt lat="43.39287" lon="6.45485">
        <ele>94</ele>
        <time>2026-01-21T13:10:21.000Z</time>
      </trkpt>
      <trkpt lat="43.39278" lon="6.45482">
        <ele>94</ele>
        <time>2026-01-21T13:10:27.000Z</time>
      </trkpt>
      <trkpt lat="43.39267" lon="6.45478">
        <ele>94</ele>
        <time>2026-01-21T13:10:36.000Z</time>
      </trkpt>
      <trkpt lat="43.39256" lon="6.45474">
        <ele>94</ele>
        <time>2026-01-21T13:10:45.000Z</time>
      </trkpt>
      <trkpt lat="43.39246" lon="6.45469">
        <ele>94</ele>
        <time>2026-01-21T13:10:54.000Z</time>
      </trkpt>
      <trkpt lat="43.39235" lon="6.45464">
        <ele>93</ele>
        <time>2026-01-21T13:11:03.000Z</time>
      </trkpt>
      <trkpt lat="43.39224" lon="6.45458">
        <ele>93</ele>
        <time>2026-01-21T13:11:12.000Z</time>
      </trkpt>
      <trkpt lat="43.39217" lon="6.45449">
        <ele>93</ele>
        <time>2026-01-21T13:11:21.000Z</time>
      </trkpt>
      <trkpt lat="43.39221" lon="6.45435">
        <ele>93</ele>
        <time>2026-01-21T13:11:30.000Z</time>
      </trkpt>
      <trkpt lat="43.39227" lon="6.45422">
        <ele>93</ele>
        <time>2026-01-21T13:11:39.000Z</time>
      </trkpt>
      <trkpt lat="43.39227" lon="6.45408">
        <ele>94</ele>
        <time>2026-01-21T13:11:48.000Z</time>
      </trkpt>
      <trkpt lat="43.39221" lon="6.45401">
        <ele>94</ele>
        <time>2026-01-21T13:11:57.000Z</time>
      </trkpt>
      <trkpt lat="43.39217" lon="6.4539">
        <ele>95</ele>
        <time>2026-01-21T13:12:12.000Z</time>
      </trkpt>
      <trkpt lat="43.39215" lon="6.45377">
        <ele>96</ele>
        <time>2026-01-21T13:12:21.000Z</time>
      </trkpt>
      <trkpt lat="43.3921" lon="6.45366">
        <ele>97</ele>
        <time>2026-01-21T13:12:30.000Z</time>
      </trkpt>
      <trkpt lat="43.39202" lon="6.4536">
        <ele>98</ele>
        <time>2026-01-21T13:12:36.000Z</time>
      </trkpt>
      <trkpt lat="43.39193" lon="6.45356">
        <ele>99</ele>
        <time>2026-01-21T13:12:45.000Z</time>
      </trkpt>
      <trkpt lat="43.39182" lon="6.45353">
        <ele>100</ele>
        <time>2026-01-21T13:12:54.000Z</time>
      </trkpt>
      <trkpt lat="43.39171" lon="6.45353">
        <ele>101</ele>
        <time>2026-01-21T13:13:03.000Z</time>
      </trkpt>
      <trkpt lat="43.3916" lon="6.45355">
        <ele>101</ele>
        <time>2026-01-21T13:13:12.000Z</time>
      </trkpt>
      <trkpt lat="43.39149" lon="6.45357">
        <ele>101</ele>
        <time>2026-01-21T13:13:21.000Z</time>
      </trkpt>
      <trkpt lat="43.39139" lon="6.45359">
        <ele>102</ele>
        <time>2026-01-21T13:13:30.000Z</time>
      </trkpt>
      <trkpt lat="43.39129" lon="6.45358">
        <ele>102</ele>
        <time>2026-01-21T13:13:39.000Z</time>
      </trkpt>
      <trkpt lat="43.39119" lon="6.45355">
        <ele>102</ele>
        <time>2026-01-21T13:13:48.000Z</time>
      </trkpt>
      <trkpt lat="43.39108" lon="6.45355">
        <ele>102</ele>
        <time>2026-01-21T13:13:57.000Z</time>
      </trkpt>
      <trkpt lat="43.39098" lon="6.45356">
        <ele>102</ele>
        <time>2026-01-21T13:14:06.000Z</time>
      </trkpt>
      <trkpt lat="43.39088" lon="6.45353">
        <ele>101</ele>
        <time>2026-01-21T13:14:15.000Z</time>
      </trkpt>
      <trkpt lat="43.39077" lon="6.4535">
        <ele>101</ele>
        <time>2026-01-21T13:14:24.000Z</time>
      </trkpt>
      <trkpt lat="43.39068" lon="6.45359">
        <ele>101</ele>
        <time>2026-01-21T13:14:36.000Z</time>
      </trkpt>
      <trkpt lat="43.3906" lon="6.45368">
        <ele>101</ele>
        <time>2026-01-21T13:14:45.000Z</time>
      </trkpt>
      <trkpt lat="43.39054" lon="6.45379">
        <ele>101</ele>
        <time>2026-01-21T13:14:51.000Z</time>
      </trkpt>
      <trkpt lat="43.39047" lon="6.45391">
        <ele>101</ele>
        <time>2026-01-21T13:15:00.000Z</time>
      </trkpt>
      <trkpt lat="43.39039" lon="6.45402">
        <ele>102</ele>
        <time>2026-01-21T13:15:09.000Z</time>
      </trkpt>
      <trkpt lat="43.39029" lon="6.4541">
        <ele>102</ele>
        <time>2026-01-21T13:15:18.000Z</time>
      </trkpt>
      <trkpt lat="43.39022" lon="6.45419">
        <ele>102</ele>
        <time>2026-01-21T13:15:27.000Z</time>
      </trkpt>
      <trkpt lat="43.39018" lon="6.4543">
        <ele>102</ele>
        <time>2026-01-21T13:16:06.000Z</time>
      </trkpt>
      <trkpt lat="43.3901" lon="6.45437">
        <ele>102</ele>
        <time>2026-01-21T13:16:15.000Z</time>
      </trkpt>
      <trkpt lat="43.39002" lon="6.45446">
        <ele>102</ele>
        <time>2026-01-21T13:16:24.000Z</time>
      </trkpt>
      <trkpt lat="43.38995" lon="6.45454">
        <ele>102</ele>
        <time>2026-01-21T13:16:30.000Z</time>
      </trkpt>
      <trkpt lat="43.38986" lon="6.45461">
        <ele>102</ele>
        <time>2026-01-21T13:16:42.000Z</time>
      </trkpt>
      <trkpt lat="43.38977" lon="6.45468">
        <ele>102</ele>
        <time>2026-01-21T13:16:54.000Z</time>
      </trkpt>
      <trkpt lat="43.38967" lon="6.45475">
        <ele>102</ele>
        <time>2026-01-21T13:17:03.000Z</time>
      </trkpt>
      <trkpt lat="43.38959" lon="6.45482">
        <ele>101</ele>
        <time>2026-01-21T13:17:12.000Z</time>
      </trkpt>
      <trkpt lat="43.38951" lon="6.4549">
        <ele>101</ele>
        <time>2026-01-21T13:17:21.000Z</time>
      </trkpt>
      <trkpt lat="43.38944" lon="6.45498">
        <ele>101</ele>
        <time>2026-01-21T13:17:30.000Z</time>
      </trkpt>
      <trkpt lat="43.38937" lon="6.45507">
        <ele>101</ele>
        <time>2026-01-21T13:17:39.000Z</time>
      </trkpt>
      <trkpt lat="43.3893" lon="6.45516">
        <ele>101</ele>
        <time>2026-01-21T13:17:48.000Z</time>
      </trkpt>
      <trkpt lat="43.38922" lon="6.45527">
        <ele>101</ele>
        <time>2026-01-21T13:17:57.000Z</time>
      </trkpt>
      <trkpt lat="43.38914" lon="6.45539">
        <ele>101</ele>
        <time>2026-01-21T13:18:06.000Z</time>
      </trkpt>
      <trkpt lat="43.38906" lon="6.45549">
        <ele>101</ele>
        <time>2026-01-21T13:18:15.000Z</time>
      </trkpt>
      <trkpt lat="43.38897" lon="6.45559">
        <ele>101</ele>
        <time>2026-01-21T13:18:24.000Z</time>
      </trkpt>
      <trkpt lat="43.3889" lon="6.4557">
        <ele>101</ele>
        <time>2026-01-21T13:18:33.000Z</time>
      </trkpt>
      <trkpt lat="43.38883" lon="6.4558">
        <ele>101</ele>
        <time>2026-01-21T13:18:42.000Z</time>
      </trkpt>
      <trkpt lat="43.38875" lon="6.45592">
        <ele>101</ele>
        <time>2026-01-21T13:18:51.000Z</time>
      </trkpt>
      <trkpt lat="43.38867" lon="6.45603">
        <ele>101</ele>
        <time>2026-01-21T13:19:00.000Z</time>
      </trkpt>
      <trkpt lat="43.3886" lon="6.45613">
        <ele>101</ele>
        <time>2026-01-21T13:19:09.000Z</time>
      </trkpt>
      <trkpt lat="43.38853" lon="6.45624">
        <ele>100</ele>
        <time>2026-01-21T13:19:18.000Z</time>
      </trkpt>
      <trkpt lat="43.38845" lon="6.45633">
        <ele>100</ele>
        <time>2026-01-21T13:19:27.000Z</time>
      </trkpt>
      <trkpt lat="43.38839" lon="6.45644">
        <ele>101</ele>
        <time>2026-01-21T13:25:18.000Z</time>
      </trkpt>
      <trkpt lat="43.38834" lon="6.45655">
        <ele>101</ele>
        <time>2026-01-21T13:25:27.000Z</time>
      </trkpt>
      <trkpt lat="43.3883" lon="6.45668">
        <ele>101</ele>
        <time>2026-01-21T13:25:36.000Z</time>
      </trkpt>
      <trkpt lat="43.38828" lon="6.45682">
        <ele>100</ele>
        <time>2026-01-21T13:25:48.000Z</time>
      </trkpt>
      <trkpt lat="43.38826" lon="6.45696">
        <ele>100</ele>
        <time>2026-01-21T13:25:57.000Z</time>
      </trkpt>
      <trkpt lat="43.38824" lon="6.45708">
        <ele>100</ele>
        <time>2026-01-21T13:26:06.000Z</time>
      </trkpt>
      <trkpt lat="43.38822" lon="6.45721">
        <ele>100</ele>
        <time>2026-01-21T13:26:15.000Z</time>
      </trkpt>
      <trkpt lat="43.38814" lon="6.45731">
        <ele>100</ele>
        <time>2026-01-21T13:26:24.000Z</time>
      </trkpt>
      <trkpt lat="43.38804" lon="6.45736">
        <ele>100</ele>
        <time>2026-01-21T13:26:33.000Z</time>
      </trkpt>
      <trkpt lat="43.38795" lon="6.45735">
        <ele>100</ele>
        <time>2026-01-21T13:27:15.000Z</time>
      </trkpt>
      <trkpt lat="43.38786" lon="6.45742">
        <ele>100</ele>
        <time>2026-01-21T13:27:36.000Z</time>
      </trkpt>
      <trkpt lat="43.38776" lon="6.45749">
        <ele>100</ele>
        <time>2026-01-21T13:27:45.000Z</time>
      </trkpt>
      <trkpt lat="43.38766" lon="6.45756">
        <ele>100</ele>
        <time>2026-01-21T13:27:57.000Z</time>
      </trkpt>
      <trkpt lat="43.38759" lon="6.45766">
        <ele>100</ele>
        <time>2026-01-21T13:28:06.000Z</time>
      </trkpt>
      <trkpt lat="43.38752" lon="6.45775">
        <ele>100</ele>
        <time>2026-01-21T13:28:15.000Z</time>
      </trkpt>
      <trkpt lat="43.38751" lon="6.45787">
        <ele>101</ele>
        <time>2026-01-21T13:28:24.000Z</time>
      </trkpt>
      <trkpt lat="43.3875" lon="6.45799">
        <ele>101</ele>
        <time>2026-01-21T13:28:30.000Z</time>
      </trkpt>
      <trkpt lat="43.38751" lon="6.45811">
        <ele>101</ele>
        <time>2026-01-21T13:28:39.000Z</time>
      </trkpt>
      <trkpt lat="43.38749" lon="6.45824">
        <ele>100</ele>
        <time>2026-01-21T13:30:06.000Z</time>
      </trkpt>
      <trkpt lat="43.38744" lon="6.45833">
        <ele>101</ele>
        <time>2026-01-21T13:30:57.000Z</time>
      </trkpt>
      <trkpt lat="43.38736" lon="6.45835">
        <ele>101</ele>
        <time>2026-01-21T13:31:18.000Z</time>
      </trkpt>
      <trkpt lat="43.38727" lon="6.45841">
        <ele>101</ele>
        <time>2026-01-21T13:31:27.000Z</time>
      </trkpt>
      <trkpt lat="43.38718" lon="6.45851">
        <ele>102</ele>
        <time>2026-01-21T13:31:36.000Z</time>
      </trkpt>
      <trkpt lat="43.38709" lon="6.4586">
        <ele>102</ele>
        <time>2026-01-21T13:31:48.000Z</time>
      </trkpt>
      <trkpt lat="43.38699" lon="6.45869">
        <ele>102</ele>
        <time>2026-01-21T13:32:03.000Z</time>
      </trkpt>
      <trkpt lat="43.38692" lon="6.45877">
        <ele>103</ele>
        <time>2026-01-21T13:32:12.000Z</time>
      </trkpt>
      <trkpt lat="43.38684" lon="6.45886">
        <ele>102</ele>
        <time>2026-01-21T13:32:24.000Z</time>
      </trkpt>
      <trkpt lat="43.38677" lon="6.45896">
        <ele>102</ele>
        <time>2026-01-21T13:32:33.000Z</time>
      </trkpt>
      <trkpt lat="43.38673" lon="6.4591">
        <ele>103</ele>
        <time>2026-01-21T13:32:45.000Z</time>
      </trkpt>
      <trkpt lat="43.3867" lon="6.45921">
        <ele>103</ele>
        <time>2026-01-21T13:32:54.000Z</time>
      </trkpt>
      <trkpt lat="43.38667" lon="6.45935">
        <ele>103</ele>
        <time>2026-01-21T13:33:09.000Z</time>
      </trkpt>
      <trkpt lat="43.38663" lon="6.45948">
        <ele>103</ele>
        <time>2026-01-21T13:33:18.000Z</time>
      </trkpt>
      <trkpt lat="43.38659" lon="6.4596">
        <ele>104</ele>
        <time>2026-01-21T13:33:27.000Z</time>
      </trkpt>
      <trkpt lat="43.38656" lon="6.45974">
        <ele>104</ele>
        <time>2026-01-21T13:33:36.000Z</time>
      </trkpt>
      <trkpt lat="43.38657" lon="6.45989">
        <ele>104</ele>
        <time>2026-01-21T13:33:45.000Z</time>
      </trkpt>
      <trkpt lat="43.38659" lon="6.46004">
        <ele>104</ele>
        <time>2026-01-21T13:33:54.000Z</time>
      </trkpt>
      <trkpt lat="43.3866" lon="6.46019">
        <ele>104</ele>
        <time>2026-01-21T13:34:03.000Z</time>
      </trkpt>
      <trkpt lat="43.38661" lon="6.46034">
        <ele>104</ele>
        <time>2026-01-21T13:34:12.000Z</time>
      </trkpt>
      <trkpt lat="43.38663" lon="6.46046">
        <ele>105</ele>
        <time>2026-01-21T13:34:24.000Z</time>
      </trkpt>
      <trkpt lat="43.38658" lon="6.46056">
        <ele>105</ele>
        <time>2026-01-21T13:34:33.000Z</time>
      </trkpt>
      <trkpt lat="43.38654" lon="6.46068">
        <ele>106</ele>
        <time>2026-01-21T13:35:00.000Z</time>
      </trkpt>
      <trkpt lat="43.3865" lon="6.4608">
        <ele>106</ele>
        <time>2026-01-21T13:35:13.000Z</time>
      </trkpt>
      <trkpt lat="43.38648" lon="6.46093">
        <ele>106</ele>
        <time>2026-01-21T13:35:22.000Z</time>
      </trkpt>
      <trkpt lat="43.38647" lon="6.46107">
        <ele>106</ele>
        <time>2026-01-21T13:35:34.000Z</time>
      </trkpt>
      <trkpt lat="43.38646" lon="6.46121">
        <ele>106</ele>
        <time>2026-01-21T13:35:46.000Z</time>
      </trkpt>
      <trkpt lat="43.38643" lon="6.46136">
        <ele>107</ele>
        <time>2026-01-21T13:35:58.000Z</time>
      </trkpt>
      <trkpt lat="43.3864" lon="6.4615">
        <ele>107</ele>
        <time>2026-01-21T13:36:07.000Z</time>
      </trkpt>
      <trkpt lat="43.38637" lon="6.46163">
        <ele>107</ele>
        <time>2026-01-21T13:36:16.000Z</time>
      </trkpt>
      <trkpt lat="43.38634" lon="6.46174">
        <ele>107</ele>
        <time>2026-01-21T13:36:25.000Z</time>
      </trkpt>
      <trkpt lat="43.3863" lon="6.46186">
        <ele>107</ele>
        <time>2026-01-21T13:36:34.000Z</time>
      </trkpt>
      <trkpt lat="43.3863" lon="6.46199">
        <ele>107</ele>
        <time>2026-01-21T13:36:43.000Z</time>
      </trkpt>
      <trkpt lat="43.38629" lon="6.46213">
        <ele>107</ele>
        <time>2026-01-21T13:36:52.000Z</time>
      </trkpt>
      <trkpt lat="43.38627" lon="6.46226">
        <ele>108</ele>
        <time>2026-01-21T13:37:01.000Z</time>
      </trkpt>
      <trkpt lat="43.38624" lon="6.46239">
        <ele>108</ele>
        <time>2026-01-21T13:37:10.000Z</time>
      </trkpt>
      <trkpt lat="43.3862" lon="6.46253">
        <ele>108</ele>
        <time>2026-01-21T13:37:19.000Z</time>
      </trkpt>
      <trkpt lat="43.38617" lon="6.46266">
        <ele>109</ele>
        <time>2026-01-21T13:37:28.000Z</time>
      </trkpt>
      <trkpt lat="43.38617" lon="6.4628">
        <ele>109</ele>
        <time>2026-01-21T13:37:37.000Z</time>
      </trkpt>
      <trkpt lat="43.38615" lon="6.46292">
        <ele>109</ele>
        <time>2026-01-21T13:37:46.000Z</time>
      </trkpt>
      <trkpt lat="43.38612" lon="6.46303">
        <ele>110</ele>
        <time>2026-01-21T13:38:19.000Z</time>
      </trkpt>
      <trkpt lat="43.38611" lon="6.46317">
        <ele>110</ele>
        <time>2026-01-21T13:39:44.000Z</time>
      </trkpt>
      <trkpt lat="43.38608" lon="6.4633">
        <ele>111</ele>
        <time>2026-01-21T13:39:53.000Z</time>
      </trkpt>
      <trkpt lat="43.38607" lon="6.46344">
        <ele>111</ele>
        <time>2026-01-21T13:40:05.000Z</time>
      </trkpt>
      <trkpt lat="43.38606" lon="6.46359">
        <ele>112</ele>
        <time>2026-01-21T13:40:14.000Z</time>
      </trkpt>
      <trkpt lat="43.38605" lon="6.46375">
        <ele>112</ele>
        <time>2026-01-21T13:40:26.000Z</time>
      </trkpt>
      <trkpt lat="43.38603" lon="6.4639">
        <ele>112</ele>
        <time>2026-01-21T13:40:38.000Z</time>
      </trkpt>
      <trkpt lat="43.38598" lon="6.46402">
        <ele>112</ele>
        <time>2026-01-21T13:40:47.000Z</time>
      </trkpt>
      <trkpt lat="43.38594" lon="6.46414">
        <ele>112</ele>
        <time>2026-01-21T13:40:56.000Z</time>
      </trkpt>
      <trkpt lat="43.38592" lon="6.46429">
        <ele>113</ele>
        <time>2026-01-21T13:41:08.000Z</time>
      </trkpt>
      <trkpt lat="43.38589" lon="6.46444">
        <ele>113</ele>
        <time>2026-01-21T13:41:17.000Z</time>
      </trkpt>
      <trkpt lat="43.38584" lon="6.46458">
        <ele>113</ele>
        <time>2026-01-21T13:41:26.000Z</time>
      </trkpt>
      <trkpt lat="43.38585" lon="6.4647">
        <ele>113</ele>
        <time>2026-01-21T13:41:35.000Z</time>
      </trkpt>
      <trkpt lat="43.38587" lon="6.46482">
        <ele>113</ele>
        <time>2026-01-21T13:41:44.000Z</time>
      </trkpt>
      <trkpt lat="43.38588" lon="6.46496">
        <ele>114</ele>
        <time>2026-01-21T13:41:56.000Z</time>
      </trkpt>
      <trkpt lat="43.38589" lon="6.46509">
        <ele>115</ele>
        <time>2026-01-21T13:42:05.000Z</time>
      </trkpt>
      <trkpt lat="43.38586" lon="6.46522">
        <ele>116</ele>
        <time>2026-01-21T13:42:14.000Z</time>
      </trkpt>
      <trkpt lat="43.38581" lon="6.46535">
        <ele>116</ele>
        <time>2026-01-21T13:42:23.000Z</time>
      </trkpt>
      <trkpt lat="43.38577" lon="6.46548">
        <ele>117</ele>
        <time>2026-01-21T13:42:32.000Z</time>
      </trkpt>
      <trkpt lat="43.38575" lon="6.46559">
        <ele>117</ele>
        <time>2026-01-21T13:42:41.000Z</time>
      </trkpt>
      <trkpt lat="43.38577" lon="6.46572">
        <ele>116</ele>
        <time>2026-01-21T13:42:50.000Z</time>
      </trkpt>
      <trkpt lat="43.38584" lon="6.46583">
        <ele>116</ele>
        <time>2026-01-21T13:42:59.000Z</time>
      </trkpt>
      <trkpt lat="43.38594" lon="6.46592">
        <ele>116</ele>
        <time>2026-01-21T13:43:11.000Z</time>
      </trkpt>
      <trkpt lat="43.38603" lon="6.466">
        <ele>116</ele>
        <time>2026-01-21T13:43:20.000Z</time>
      </trkpt>
      <trkpt lat="43.38611" lon="6.46611">
        <ele>116</ele>
        <time>2026-01-21T13:43:29.000Z</time>
      </trkpt>
      <trkpt lat="43.38616" lon="6.46624">
        <ele>116</ele>
        <time>2026-01-21T13:43:38.000Z</time>
      </trkpt>
      <trkpt lat="43.38621" lon="6.46635">
        <ele>117</ele>
        <time>2026-01-21T13:43:47.000Z</time>
      </trkpt>
      <trkpt lat="43.38627" lon="6.46648">
        <ele>117</ele>
        <time>2026-01-21T13:43:56.000Z</time>
      </trkpt>
      <trkpt lat="43.38629" lon="6.46661">
        <ele>118</ele>
        <time>2026-01-21T13:44:05.000Z</time>
      </trkpt>
      <trkpt lat="43.38632" lon="6.46675">
        <ele>118</ele>
        <time>2026-01-21T13:44:14.000Z</time>
      </trkpt>
      <trkpt lat="43.38635" lon="6.46688">
        <ele>118</ele>
        <time>2026-01-21T13:44:23.000Z</time>
      </trkpt>
      <trkpt lat="43.3864" lon="6.46699">
        <ele>118</ele>
        <time>2026-01-21T13:44:32.000Z</time>
      </trkpt>
      <trkpt lat="43.38644" lon="6.46711">
        <ele>119</ele>
        <time>2026-01-21T13:44:41.000Z</time>
      </trkpt>
      <trkpt lat="43.38649" lon="6.46725">
        <ele>119</ele>
        <time>2026-01-21T13:44:53.000Z</time>
      </trkpt>
      <trkpt lat="43.38655" lon="6.46738">
        <ele>120</ele>
        <time>2026-01-21T13:45:02.000Z</time>
      </trkpt>
      <trkpt lat="43.38661" lon="6.4675">
        <ele>120</ele>
        <time>2026-01-21T13:45:11.000Z</time>
      </trkpt>
      <trkpt lat="43.38667" lon="6.46761">
        <ele>120</ele>
        <time>2026-01-21T13:45:20.000Z</time>
      </trkpt>
      <trkpt lat="43.38669" lon="6.46775">
        <ele>120</ele>
        <time>2026-01-21T13:45:29.000Z</time>
      </trkpt>
      <trkpt lat="43.3867" lon="6.46788">
        <ele>120</ele>
        <time>2026-01-21T13:45:38.000Z</time>
      </trkpt>
      <trkpt lat="43.3867" lon="6.46801">
        <ele>120</ele>
        <time>2026-01-21T13:45:47.000Z</time>
      </trkpt>
      <trkpt lat="43.38675" lon="6.46812">
        <ele>120</ele>
        <time>2026-01-21T13:45:59.000Z</time>
      </trkpt>
      <trkpt lat="43.38677" lon="6.46824">
        <ele>120</ele>
        <time>2026-01-21T13:46:08.000Z</time>
      </trkpt>
      <trkpt lat="43.38673" lon="6.4683">
        <ele>119</ele>
        <time>2026-01-21T13:47:50.000Z</time>
      </trkpt>
      <trkpt lat="43.38677" lon="6.46827">
        <ele>120</ele>
        <time>2026-01-21T13:48:50.000Z</time>
      </trkpt>
      <trkpt lat="43.38672" lon="6.46833">
        <ele>120</ele>
        <time>2026-01-21T13:51:41.000Z</time>
      </trkpt>
      <trkpt lat="43.38662" lon="6.46833">
        <ele>121</ele>
        <time>2026-01-21T13:51:50.000Z</time>
      </trkpt>
      <trkpt lat="43.38652" lon="6.46837">
        <ele>122</ele>
        <time>2026-01-21T13:52:02.000Z</time>
      </trkpt>
      <trkpt lat="43.38642" lon="6.46842">
        <ele>122</ele>
        <time>2026-01-21T13:52:14.000Z</time>
      </trkpt>
      <trkpt lat="43.38633" lon="6.46848">
        <ele>122</ele>
        <time>2026-01-21T13:52:23.000Z</time>
      </trkpt>
      <trkpt lat="43.38623" lon="6.46852">
        <ele>123</ele>
        <time>2026-01-21T13:52:32.000Z</time>
      </trkpt>
      <trkpt lat="43.38613" lon="6.46854">
        <ele>123</ele>
        <time>2026-01-21T13:52:41.000Z</time>
      </trkpt>
      <trkpt lat="43.38604" lon="6.46853">
        <ele>123</ele>
        <time>2026-01-21T13:52:47.000Z</time>
      </trkpt>
      <trkpt lat="43.38595" lon="6.4685">
        <ele>123</ele>
        <time>2026-01-21T13:52:56.000Z</time>
      </trkpt>
      <trkpt lat="43.38586" lon="6.46854">
        <ele>122</ele>
        <time>2026-01-21T13:53:05.000Z</time>
      </trkpt>
      <trkpt lat="43.38577" lon="6.46859">
        <ele>122</ele>
        <time>2026-01-21T13:53:17.000Z</time>
      </trkpt>
      <trkpt lat="43.38568" lon="6.46865">
        <ele>122</ele>
        <time>2026-01-21T13:53:26.000Z</time>
      </trkpt>
      <trkpt lat="43.3856" lon="6.46875">
        <ele>122</ele>
        <time>2026-01-21T13:53:35.000Z</time>
      </trkpt>
      <trkpt lat="43.38553" lon="6.46882">
        <ele>122</ele>
        <time>2026-01-21T13:53:44.000Z</time>
      </trkpt>
      <trkpt lat="43.38544" lon="6.46889">
        <ele>123</ele>
        <time>2026-01-21T13:53:53.000Z</time>
      </trkpt>
      <trkpt lat="43.38535" lon="6.46897">
        <ele>123</ele>
        <time>2026-01-21T13:54:02.000Z</time>
      </trkpt>
      <trkpt lat="43.38527" lon="6.46903">
        <ele>123</ele>
        <time>2026-01-21T13:54:11.000Z</time>
      </trkpt>
      <trkpt lat="43.38517" lon="6.46908">
        <ele>124</ele>
        <time>2026-01-21T13:54:20.000Z</time>
      </trkpt>
      <trkpt lat="43.38507" lon="6.46911">
        <ele>125</ele>
        <time>2026-01-21T13:54:29.000Z</time>
      </trkpt>
      <trkpt lat="43.38497" lon="6.46916">
        <ele>126</ele>
        <time>2026-01-21T13:54:38.000Z</time>
      </trkpt>
      <trkpt lat="43.38489" lon="6.46919">
        <ele>127</ele>
        <time>2026-01-21T13:54:47.000Z</time>
      </trkpt>
      <trkpt lat="43.3848" lon="6.46924">
        <ele>128</ele>
        <time>2026-01-21T13:54:56.000Z</time>
      </trkpt>
      <trkpt lat="43.38471" lon="6.46927">
        <ele>129</ele>
        <time>2026-01-21T13:55:05.000Z</time>
      </trkpt>
      <trkpt lat="43.38462" lon="6.46933">
        <ele>129</ele>
        <time>2026-01-21T13:55:14.000Z</time>
      </trkpt>
      <trkpt lat="43.38454" lon="6.46936">
        <ele>129</ele>
        <time>2026-01-21T13:55:23.000Z</time>
      </trkpt>
      <trkpt lat="43.38445" lon="6.46936">
        <ele>129</ele>
        <time>2026-01-21T13:55:32.000Z</time>
      </trkpt>
      <trkpt lat="43.38435" lon="6.46935">
        <ele>130</ele>
        <time>2026-01-21T13:55:41.000Z</time>
      </trkpt>
      <trkpt lat="43.38426" lon="6.46942">
        <ele>130</ele>
        <time>2026-01-21T13:55:50.000Z</time>
      </trkpt>
      <trkpt lat="43.38418" lon="6.46948">
        <ele>130</ele>
        <time>2026-01-21T13:55:59.000Z</time>
      </trkpt>
      <trkpt lat="43.38408" lon="6.46952">
        <ele>131</ele>
        <time>2026-01-21T13:56:08.000Z</time>
      </trkpt>
      <trkpt lat="43.38397" lon="6.46954">
        <ele>131</ele>
        <time>2026-01-21T13:56:17.000Z</time>
      </trkpt>
      <trkpt lat="43.38386" lon="6.46958">
        <ele>130</ele>
        <time>2026-01-21T13:56:29.000Z</time>
      </trkpt>
      <trkpt lat="43.38376" lon="6.46965">
        <ele>130</ele>
        <time>2026-01-21T13:56:38.000Z</time>
      </trkpt>
      <trkpt lat="43.38368" lon="6.46973">
        <ele>130</ele>
        <time>2026-01-21T13:56:50.000Z</time>
      </trkpt>
      <trkpt lat="43.3836" lon="6.46982">
        <ele>130</ele>
        <time>2026-01-21T13:56:59.000Z</time>
      </trkpt>
      <trkpt lat="43.38352" lon="6.46988">
        <ele>130</ele>
        <time>2026-01-21T13:57:05.000Z</time>
      </trkpt>
      <trkpt lat="43.38345" lon="6.46995">
        <ele>130</ele>
        <time>2026-01-21T13:57:11.000Z</time>
      </trkpt>
      <trkpt lat="43.38336" lon="6.47004">
        <ele>130</ele>
        <time>2026-01-21T13:57:23.000Z</time>
      </trkpt>
      <trkpt lat="43.38326" lon="6.47007">
        <ele>129</ele>
        <time>2026-01-21T13:57:29.000Z</time>
      </trkpt>
      <trkpt lat="43.38316" lon="6.47012">
        <ele>129</ele>
        <time>2026-01-21T13:57:38.000Z</time>
      </trkpt>
      <trkpt lat="43.38307" lon="6.47016">
        <ele>129</ele>
        <time>2026-01-21T13:57:47.000Z</time>
      </trkpt>
      <trkpt lat="43.38297" lon="6.47018">
        <ele>129</ele>
        <time>2026-01-21T13:57:56.000Z</time>
      </trkpt>
      <trkpt lat="43.38288" lon="6.47023">
        <ele>130</ele>
        <time>2026-01-21T13:58:05.000Z</time>
      </trkpt>
      <trkpt lat="43.38279" lon="6.47029">
        <ele>130</ele>
        <time>2026-01-21T13:58:14.000Z</time>
      </trkpt>
      <trkpt lat="43.38269" lon="6.47033">
        <ele>131</ele>
        <time>2026-01-21T13:58:23.000Z</time>
      </trkpt>
      <trkpt lat="43.3826" lon="6.47042">
        <ele>131</ele>
        <time>2026-01-21T13:58:35.000Z</time>
      </trkpt>
      <trkpt lat="43.38254" lon="6.47051">
        <ele>131</ele>
        <time>2026-01-21T13:58:44.000Z</time>
      </trkpt>
      <trkpt lat="43.38246" lon="6.47057">
        <ele>131</ele>
        <time>2026-01-21T13:58:53.000Z</time>
      </trkpt>
      <trkpt lat="43.38236" lon="6.47057">
        <ele>131</ele>
        <time>2026-01-21T13:59:02.000Z</time>
      </trkpt>
      <trkpt lat="43.38228" lon="6.47053">
        <ele>131</ele>
        <time>2026-01-21T13:59:11.000Z</time>
      </trkpt>
      <trkpt lat="43.38221" lon="6.47045">
        <ele>130</ele>
        <time>2026-01-21T13:59:20.000Z</time>
      </trkpt>
      <trkpt lat="43.38216" lon="6.47035">
        <ele>129</ele>
        <time>2026-01-21T13:59:32.000Z</time>
      </trkpt>
      <trkpt lat="43.38208" lon="6.47032">
        <ele>129</ele>
        <time>2026-01-21T13:59:41.000Z</time>
      </trkpt>
      <trkpt lat="43.38199" lon="6.47029">
        <ele>128</ele>
        <time>2026-01-21T13:59:50.000Z</time>
      </trkpt>
      <trkpt lat="43.3819" lon="6.47027">
        <ele>128</ele>
        <time>2026-01-21T14:00:02.000Z</time>
      </trkpt>
      <trkpt lat="43.38181" lon="6.47028">
        <ele>128</ele>
        <time>2026-01-21T14:00:11.000Z</time>
      </trkpt>
      <trkpt lat="43.38172" lon="6.47034">
        <ele>128</ele>
        <time>2026-01-21T14:00:23.000Z</time>
      </trkpt>
      <trkpt lat="43.38166" lon="6.47042">
        <ele>128</ele>
        <time>2026-01-21T14:00:32.000Z</time>
      </trkpt>
      <trkpt lat="43.38161" lon="6.47052">
        <ele>128</ele>
        <time>2026-01-21T14:00:41.000Z</time>
      </trkpt>
      <trkpt lat="43.38155" lon="6.47062">
        <ele>129</ele>
        <time>2026-01-21T14:00:53.000Z</time>
      </trkpt>
      <trkpt lat="43.38146" lon="6.47068">
        <ele>129</ele>
        <time>2026-01-21T14:01:02.000Z</time>
      </trkpt>
      <trkpt lat="43.38137" lon="6.47072">
        <ele>130</ele>
        <time>2026-01-21T14:01:11.000Z</time>
      </trkpt>
      <trkpt lat="43.38128" lon="6.47073">
        <ele>131</ele>
        <time>2026-01-21T14:01:20.000Z</time>
      </trkpt>
      <trkpt lat="43.38118" lon="6.47069">
        <ele>132</ele>
        <time>2026-01-21T14:01:29.000Z</time>
      </trkpt>
      <trkpt lat="43.38108" lon="6.47066">
        <ele>132</ele>
        <time>2026-01-21T14:01:38.000Z</time>
      </trkpt>
      <trkpt lat="43.38098" lon="6.47064">
        <ele>132</ele>
        <time>2026-01-21T14:01:47.000Z</time>
      </trkpt>
      <trkpt lat="43.38088" lon="6.47061">
        <ele>131</ele>
        <time>2026-01-21T14:01:56.000Z</time>
      </trkpt>
      <trkpt lat="43.38079" lon="6.47055">
        <ele>130</ele>
        <time>2026-01-21T14:02:05.000Z</time>
      </trkpt>
      <trkpt lat="43.3807" lon="6.47049">
        <ele>129</ele>
        <time>2026-01-21T14:05:23.000Z</time>
      </trkpt>
      <trkpt lat="43.3806" lon="6.47045">
        <ele>128</ele>
        <time>2026-01-21T14:05:32.000Z</time>
      </trkpt>
      <trkpt lat="43.38048" lon="6.47041">
        <ele>128</ele>
        <time>2026-01-21T14:05:44.000Z</time>
      </trkpt>
      <trkpt lat="43.38039" lon="6.47032">
        <ele>128</ele>
        <time>2026-01-21T14:05:56.000Z</time>
      </trkpt>
      <trkpt lat="43.38032" lon="6.47022">
        <ele>128</ele>
        <time>2026-01-21T14:06:05.000Z</time>
      </trkpt>
      <trkpt lat="43.3803" lon="6.47009">
        <ele>129</ele>
        <time>2026-01-21T14:06:14.000Z</time>
      </trkpt>
      <trkpt lat="43.38028" lon="6.46997">
        <ele>129</ele>
        <time>2026-01-21T14:06:23.000Z</time>
      </trkpt>
      <trkpt lat="43.38022" lon="6.46987">
        <ele>130</ele>
        <time>2026-01-21T14:06:32.000Z</time>
      </trkpt>
      <trkpt lat="43.38016" lon="6.46979">
        <ele>130</ele>
        <time>2026-01-21T14:06:41.000Z</time>
      </trkpt>
      <trkpt lat="43.38007" lon="6.46973">
        <ele>131</ele>
        <time>2026-01-21T14:06:50.000Z</time>
      </trkpt>
      <trkpt lat="43.37999" lon="6.46965">
        <ele>131</ele>
        <time>2026-01-21T14:06:59.000Z</time>
      </trkpt>
      <trkpt lat="43.37992" lon="6.46955">
        <ele>131</ele>
        <time>2026-01-21T14:07:08.000Z</time>
      </trkpt>
      <trkpt lat="43.37983" lon="6.46948">
        <ele>131</ele>
        <time>2026-01-21T14:07:20.000Z</time>
      </trkpt>
      <trkpt lat="43.37974" lon="6.46943">
        <ele>130</ele>
        <time>2026-01-21T14:07:29.000Z</time>
      </trkpt>
      <trkpt lat="43.37964" lon="6.46939">
        <ele>130</ele>
        <time>2026-01-21T14:07:38.000Z</time>
      </trkpt>
      <trkpt lat="43.37955" lon="6.46936">
        <ele>130</ele>
        <time>2026-01-21T14:07:47.000Z</time>
      </trkpt>
      <trkpt lat="43.37949" lon="6.46943">
        <ele>129</ele>
        <time>2026-01-21T14:07:56.000Z</time>
      </trkpt>
      <trkpt lat="43.37939" lon="6.46943">
        <ele>130</ele>
        <time>2026-01-21T14:08:11.000Z</time>
      </trkpt>
      <trkpt lat="43.3793" lon="6.46946">
        <ele>130</ele>
        <time>2026-01-21T14:08:20.000Z</time>
      </trkpt>
      <trkpt lat="43.37922" lon="6.46942">
        <ele>129</ele>
        <time>2026-01-21T14:08:29.000Z</time>
      </trkpt>
      <trkpt lat="43.37918" lon="6.46932">
        <ele>129</ele>
        <time>2026-01-21T14:08:50.000Z</time>
      </trkpt>
      <trkpt lat="43.37914" lon="6.46919">
        <ele>129</ele>
        <time>2026-01-21T14:08:59.000Z</time>
      </trkpt>
      <trkpt lat="43.37906" lon="6.46911">
        <ele>128</ele>
        <time>2026-01-21T14:09:08.000Z</time>
      </trkpt>
      <trkpt lat="43.37897" lon="6.46905">
        <ele>128</ele>
        <time>2026-01-21T14:09:17.000Z</time>
      </trkpt>
      <trkpt lat="43.37888" lon="6.46899">
        <ele>128</ele>
        <time>2026-01-21T14:09:35.000Z</time>
      </trkpt>
      <trkpt lat="43.37881" lon="6.46891">
        <ele>128</ele>
        <time>2026-01-21T14:09:44.000Z</time>
      </trkpt>
      <trkpt lat="43.37874" lon="6.46882">
        <ele>129</ele>
        <time>2026-01-21T14:09:50.000Z</time>
      </trkpt>
      <trkpt lat="43.37865" lon="6.46876">
        <ele>130</ele>
        <time>2026-01-21T14:09:59.000Z</time>
      </trkpt>
      <trkpt lat="43.37856" lon="6.46866">
        <ele>130</ele>
        <time>2026-01-21T14:10:11.000Z</time>
      </trkpt>
      <trkpt lat="43.3785" lon="6.46854">
        <ele>131</ele>
        <time>2026-01-21T14:10:20.000Z</time>
      </trkpt>
      <trkpt lat="43.37841" lon="6.46844">
        <ele>131</ele>
        <time>2026-01-21T14:10:29.000Z</time>
      </trkpt>
      <trkpt lat="43.37831" lon="6.4684">
        <ele>131</ele>
        <time>2026-01-21T14:10:41.000Z</time>
      </trkpt>
      <trkpt lat="43.37821" lon="6.46843">
        <ele>131</ele>
        <time>2026-01-21T14:10:50.000Z</time>
      </trkpt>
      <trkpt lat="43.37812" lon="6.46849">
        <ele>131</ele>
        <time>2026-01-21T14:10:59.000Z</time>
      </trkpt>
      <trkpt lat="43.37803" lon="6.46851">
        <ele>131</ele>
        <time>2026-01-21T14:11:08.000Z</time>
      </trkpt>
      <trkpt lat="43.37793" lon="6.4685">
        <ele>131</ele>
        <time>2026-01-21T14:11:17.000Z</time>
      </trkpt>
      <trkpt lat="43.37783" lon="6.46845">
        <ele>131</ele>
        <time>2026-01-21T14:11:38.000Z</time>
      </trkpt>
      <trkpt lat="43.37773" lon="6.46838">
        <ele>131</ele>
        <time>2026-01-21T14:11:47.000Z</time>
      </trkpt>
      <trkpt lat="43.37764" lon="6.46835">
        <ele>131</ele>
        <time>2026-01-21T14:11:56.000Z</time>
      </trkpt>
      <trkpt lat="43.37755" lon="6.46825">
        <ele>132</ele>
        <time>2026-01-21T14:12:11.000Z</time>
      </trkpt>
      <trkpt lat="43.37749" lon="6.46811">
        <ele>132</ele>
        <time>2026-01-21T14:12:35.000Z</time>
      </trkpt>
      <trkpt lat="43.37742" lon="6.468">
        <ele>132</ele>
        <time>2026-01-21T14:12:47.000Z</time>
      </trkpt>
      <trkpt lat="43.37737" lon="6.46789">
        <ele>132</ele>
        <time>2026-01-21T14:12:56.000Z</time>
      </trkpt>
      <trkpt lat="43.37732" lon="6.46779">
        <ele>132</ele>
        <time>2026-01-21T14:13:05.000Z</time>
      </trkpt>
      <trkpt lat="43.37726" lon="6.46767">
        <ele>132</ele>
        <time>2026-01-21T14:13:14.000Z</time>
      </trkpt>
      <trkpt lat="43.37721" lon="6.46756">
        <ele>131</ele>
        <time>2026-01-21T14:13:22.000Z</time>
      </trkpt>
      <trkpt lat="43.37713" lon="6.46748">
        <ele>131</ele>
        <time>2026-01-21T14:13:31.000Z</time>
      </trkpt>
      <trkpt lat="43.37705" lon="6.4674">
        <ele>130</ele>
        <time>2026-01-21T14:13:40.000Z</time>
      </trkpt>
      <trkpt lat="43.37698" lon="6.46727">
        <ele>131</ele>
        <time>2026-01-21T14:13:52.000Z</time>
      </trkpt>
      <trkpt lat="43.37692" lon="6.46717">
        <ele>130</ele>
        <time>2026-01-21T14:13:58.000Z</time>
      </trkpt>
      <trkpt lat="43.37687" lon="6.46707">
        <ele>130</ele>
        <time>2026-01-21T14:14:07.000Z</time>
      </trkpt>
      <trkpt lat="43.37682" lon="6.46696">
        <ele>130</ele>
        <time>2026-01-21T14:14:16.000Z</time>
      </trkpt>
      <trkpt lat="43.37677" lon="6.46682">
        <ele>130</ele>
        <time>2026-01-21T14:14:25.000Z</time>
      </trkpt>
      <trkpt lat="43.37673" lon="6.46669">
        <ele>130</ele>
        <time>2026-01-21T14:14:34.000Z</time>
      </trkpt>
      <trkpt lat="43.37672" lon="6.46654">
        <ele>131</ele>
        <time>2026-01-21T14:14:49.000Z</time>
      </trkpt>
      <trkpt lat="43.37668" lon="6.46642">
        <ele>131</ele>
        <time>2026-01-21T14:15:01.000Z</time>
      </trkpt>
      <trkpt lat="43.37665" lon="6.46628">
        <ele>132</ele>
        <time>2026-01-21T14:15:13.000Z</time>
      </trkpt>
      <trkpt lat="43.37663" lon="6.46617">
        <ele>132</ele>
        <time>2026-01-21T14:16:55.000Z</time>
      </trkpt>
      <trkpt lat="43.37656" lon="6.4661">
        <ele>132</ele>
        <time>2026-01-21T14:18:37.000Z</time>
      </trkpt>
      <trkpt lat="43.37647" lon="6.46604">
        <ele>132</ele>
        <time>2026-01-21T14:18:46.000Z</time>
      </trkpt>
      <trkpt lat="43.37638" lon="6.46599">
        <ele>133</ele>
        <time>2026-01-21T14:18:55.000Z</time>
      </trkpt>
      <trkpt lat="43.37629" lon="6.46595">
        <ele>133</ele>
        <time>2026-01-21T14:19:04.000Z</time>
      </trkpt>
      <trkpt lat="43.37621" lon="6.46587">
        <ele>134</ele>
        <time>2026-01-21T14:19:13.000Z</time>
      </trkpt>
      <trkpt lat="43.37613" lon="6.46579">
        <ele>134</ele>
        <time>2026-01-21T14:19:22.000Z</time>
      </trkpt>
      <trkpt lat="43.37605" lon="6.46572">
        <ele>134</ele>
        <time>2026-01-21T14:19:28.000Z</time>
      </trkpt>
      <trkpt lat="43.37598" lon="6.46563">
        <ele>134</ele>
        <time>2026-01-21T14:19:37.000Z</time>
      </trkpt>
      <trkpt lat="43.37591" lon="6.46555">
        <ele>133</ele>
        <time>2026-01-21T14:19:46.000Z</time>
      </trkpt>
      <trkpt lat="43.37594" lon="6.46545">
        <ele>132</ele>
        <time>2026-01-21T14:21:10.000Z</time>
      </trkpt>
      <trkpt lat="43.37601" lon="6.46535">
        <ele>132</ele>
        <time>2026-01-21T14:21:19.000Z</time>
      </trkpt>
      <trkpt lat="43.37607" lon="6.46525">
        <ele>131</ele>
        <time>2026-01-21T14:21:28.000Z</time>
      </trkpt>
      <trkpt lat="43.37617" lon="6.46518">
        <ele>131</ele>
        <time>2026-01-21T14:21:37.000Z</time>
      </trkpt>
      <trkpt lat="43.37627" lon="6.46514">
        <ele>131</ele>
        <time>2026-01-21T14:21:46.000Z</time>
      </trkpt>
      <trkpt lat="43.37636" lon="6.46508">
        <ele>131</ele>
        <time>2026-01-21T14:21:55.000Z</time>
      </trkpt>
      <trkpt lat="43.37645" lon="6.465">
        <ele>131</ele>
        <time>2026-01-21T14:22:04.000Z</time>
      </trkpt>
      <trkpt lat="43.37651" lon="6.4649">
        <ele>130</ele>
        <time>2026-01-21T14:22:13.000Z</time>
      </trkpt>
      <trkpt lat="43.37662" lon="6.46484">
        <ele>130</ele>
        <time>2026-01-21T14:22:22.000Z</time>
      </trkpt>
      <trkpt lat="43.37672" lon="6.4648">
        <ele>129</ele>
        <time>2026-01-21T14:22:31.000Z</time>
      </trkpt>
      <trkpt lat="43.37681" lon="6.46477">
        <ele>129</ele>
        <time>2026-01-21T14:22:37.000Z</time>
      </trkpt>
      <trkpt lat="43.37692" lon="6.46472">
        <ele>129</ele>
        <time>2026-01-21T14:22:46.000Z</time>
      </trkpt>
      <trkpt lat="43.37701" lon="6.46465">
        <ele>129</ele>
        <time>2026-01-21T14:22:55.000Z</time>
      </trkpt>
      <trkpt lat="43.37709" lon="6.46452">
        <ele>129</ele>
        <time>2026-01-21T14:23:04.000Z</time>
      </trkpt>
      <trkpt lat="43.37714" lon="6.46438">
        <ele>128</ele>
        <time>2026-01-21T14:23:13.000Z</time>
      </trkpt>
      <trkpt lat="43.37716" lon="6.46426">
        <ele>128</ele>
        <time>2026-01-21T14:23:19.000Z</time>
      </trkpt>
      <trkpt lat="43.37718" lon="6.46414">
        <ele>127</ele>
        <time>2026-01-21T14:23:28.000Z</time>
      </trkpt>
      <trkpt lat="43.37721" lon="6.46402">
        <ele>127</ele>
        <time>2026-01-21T14:23:37.000Z</time>
      </trkpt>
      <trkpt lat="43.37727" lon="6.4639">
        <ele>126</ele>
        <time>2026-01-21T14:23:46.000Z</time>
      </trkpt>
      <trkpt lat="43.37734" lon="6.46381">
        <ele>125</ele>
        <time>2026-01-21T14:23:52.000Z</time>
      </trkpt>
      <trkpt lat="43.37741" lon="6.4637">
        <ele>125</ele>
        <time>2026-01-21T14:24:01.000Z</time>
      </trkpt>
      <trkpt lat="43.37749" lon="6.46359">
        <ele>124</ele>
        <time>2026-01-21T14:24:10.000Z</time>
      </trkpt>
      <trkpt lat="43.37757" lon="6.46348">
        <ele>123</ele>
        <time>2026-01-21T14:24:19.000Z</time>
      </trkpt>
      <trkpt lat="43.37768" lon="6.46341">
        <ele>123</ele>
        <time>2026-01-21T14:24:28.000Z</time>
      </trkpt>
      <trkpt lat="43.37779" lon="6.46336">
        <ele>122</ele>
        <time>2026-01-21T14:24:37.000Z</time>
      </trkpt>
      <trkpt lat="43.3779" lon="6.4633">
        <ele>122</ele>
        <time>2026-01-21T14:24:46.000Z</time>
      </trkpt>
      <trkpt lat="43.37801" lon="6.46328">
        <ele>122</ele>
        <time>2026-01-21T14:24:55.000Z</time>
      </trkpt>
      <trkpt lat="43.37812" lon="6.46326">
        <ele>122</ele>
        <time>2026-01-21T14:25:04.000Z</time>
      </trkpt>
      <trkpt lat="43.37822" lon="6.46326">
        <ele>121</ele>
        <time>2026-01-21T14:25:10.000Z</time>
      </trkpt>
      <trkpt lat="43.37834" lon="6.46327">
        <ele>121</ele>
        <time>2026-01-21T14:25:19.000Z</time>
      </trkpt>
      <trkpt lat="43.37843" lon="6.46329">
        <ele>121</ele>
        <time>2026-01-21T14:25:28.000Z</time>
      </trkpt>
      <trkpt lat="43.37853" lon="6.4633">
        <ele>121</ele>
        <time>2026-01-21T14:25:34.000Z</time>
      </trkpt>
      <trkpt lat="43.37865" lon="6.46332">
        <ele>121</ele>
        <time>2026-01-21T14:25:43.000Z</time>
      </trkpt>
      <trkpt lat="43.37876" lon="6.4633">
        <ele>122</ele>
        <time>2026-01-21T14:25:52.000Z</time>
      </trkpt>
      <trkpt lat="43.37886" lon="6.46329">
        <ele>121</ele>
        <time>2026-01-21T14:26:01.000Z</time>
      </trkpt>
      <trkpt lat="43.37896" lon="6.46327">
        <ele>121</ele>
        <time>2026-01-21T14:26:07.000Z</time>
      </trkpt>
      <trkpt lat="43.37906" lon="6.46323">
        <ele>121</ele>
        <time>2026-01-21T14:26:16.000Z</time>
      </trkpt>
      <trkpt lat="43.37917" lon="6.4632">
        <ele>121</ele>
        <time>2026-01-21T14:26:25.000Z</time>
      </trkpt>
      <trkpt lat="43.37929" lon="6.46313">
        <ele>121</ele>
        <time>2026-01-21T14:26:34.000Z</time>
      </trkpt>
      <trkpt lat="43.37938" lon="6.46303">
        <ele>121</ele>
        <time>2026-01-21T14:26:43.000Z</time>
      </trkpt>
      <trkpt lat="43.37946" lon="6.46291">
        <ele>121</ele>
        <time>2026-01-21T14:26:52.000Z</time>
      </trkpt>
      <trkpt lat="43.37952" lon="6.46277">
        <ele>121</ele>
        <time>2026-01-21T14:27:01.000Z</time>
      </trkpt>
      <trkpt lat="43.37959" lon="6.46264">
        <ele>121</ele>
        <time>2026-01-21T14:27:10.000Z</time>
      </trkpt>
      <trkpt lat="43.37967" lon="6.46252">
        <ele>121</ele>
        <time>2026-01-21T14:27:19.000Z</time>
      </trkpt>
      <trkpt lat="43.37975" lon="6.4624">
        <ele>121</ele>
        <time>2026-01-21T14:27:28.000Z</time>
      </trkpt>
      <trkpt lat="43.37982" lon="6.46226">
        <ele>121</ele>
        <time>2026-01-21T14:27:37.000Z</time>
      </trkpt>
      <trkpt lat="43.37988" lon="6.46212">
        <ele>120</ele>
        <time>2026-01-21T14:27:46.000Z</time>
      </trkpt>
      <trkpt lat="43.37995" lon="6.462">
        <ele>120</ele>
        <time>2026-01-21T14:27:55.000Z</time>
      </trkpt>
      <trkpt lat="43.38004" lon="6.46188">
        <ele>119</ele>
        <time>2026-01-21T14:28:04.000Z</time>
      </trkpt>
      <trkpt lat="43.38012" lon="6.46177">
        <ele>118</ele>
        <time>2026-01-21T14:28:13.000Z</time>
      </trkpt>
      <trkpt lat="43.38022" lon="6.46169">
        <ele>118</ele>
        <time>2026-01-21T14:28:22.000Z</time>
      </trkpt>
      <trkpt lat="43.38032" lon="6.46164">
        <ele>117</ele>
        <time>2026-01-21T14:28:31.000Z</time>
      </trkpt>
      <trkpt lat="43.38043" lon="6.46157">
        <ele>117</ele>
        <time>2026-01-21T14:28:40.000Z</time>
      </trkpt>
      <trkpt lat="43.3805" lon="6.4615">
        <ele>117</ele>
        <time>2026-01-21T14:28:46.000Z</time>
      </trkpt>
      <trkpt lat="43.38056" lon="6.46137">
        <ele>117</ele>
        <time>2026-01-21T14:28:55.000Z</time>
      </trkpt>
      <trkpt lat="43.38058" lon="6.46122">
        <ele>117</ele>
        <time>2026-01-21T14:29:04.000Z</time>
      </trkpt>
      <trkpt lat="43.38061" lon="6.46107">
        <ele>117</ele>
        <time>2026-01-21T14:29:13.000Z</time>
      </trkpt>
      <trkpt lat="43.38063" lon="6.46092">
        <ele>117</ele>
        <time>2026-01-21T14:29:22.000Z</time>
      </trkpt>
      <trkpt lat="43.38065" lon="6.46075">
        <ele>117</ele>
        <time>2026-01-21T14:29:31.000Z</time>
      </trkpt>
      <trkpt lat="43.38066" lon="6.4606">
        <ele>117</ele>
        <time>2026-01-21T14:29:40.000Z</time>
      </trkpt>
      <trkpt lat="43.38072" lon="6.46047">
        <ele>116</ele>
        <time>2026-01-21T14:29:49.000Z</time>
      </trkpt>
      <trkpt lat="43.38081" lon="6.46036">
        <ele>116</ele>
        <time>2026-01-21T14:29:58.000Z</time>
      </trkpt>
      <trkpt lat="43.38092" lon="6.46028">
        <ele>116</ele>
        <time>2026-01-21T14:30:07.000Z</time>
      </trkpt>
      <trkpt lat="43.38102" lon="6.4602">
        <ele>115</ele>
        <time>2026-01-21T14:30:16.000Z</time>
      </trkpt>
      <trkpt lat="43.38111" lon="6.46011">
        <ele>115</ele>
        <time>2026-01-21T14:30:25.000Z</time>
      </trkpt>
      <trkpt lat="43.38121" lon="6.46002">
        <ele>114</ele>
        <time>2026-01-21T14:30:34.000Z</time>
      </trkpt>
      <trkpt lat="43.3813" lon="6.45992">
        <ele>114</ele>
        <time>2026-01-21T14:30:43.000Z</time>
      </trkpt>
      <trkpt lat="43.38138" lon="6.45984">
        <ele>113</ele>
        <time>2026-01-21T14:30:49.000Z</time>
      </trkpt>
      <trkpt lat="43.38146" lon="6.45972">
        <ele>113</ele>
        <time>2026-01-21T14:30:58.000Z</time>
      </trkpt>
      <trkpt lat="43.38155" lon="6.45962">
        <ele>113</ele>
        <time>2026-01-21T14:31:07.000Z</time>
      </trkpt>
      <trkpt lat="43.38165" lon="6.45956">
        <ele>113</ele>
        <time>2026-01-21T14:31:16.000Z</time>
      </trkpt>
      <trkpt lat="43.38176" lon="6.45948">
        <ele>113</ele>
        <time>2026-01-21T14:31:25.000Z</time>
      </trkpt>
      <trkpt lat="43.38183" lon="6.45937">
        <ele>113</ele>
        <time>2026-01-21T14:31:34.000Z</time>
      </trkpt>
      <trkpt lat="43.38189" lon="6.45924">
        <ele>113</ele>
        <time>2026-01-21T14:31:40.000Z</time>
      </trkpt>
      <trkpt lat="43.38193" lon="6.4591">
        <ele>113</ele>
        <time>2026-01-21T14:31:49.000Z</time>
      </trkpt>
      <trkpt lat="43.38196" lon="6.45895">
        <ele>114</ele>
        <time>2026-01-21T14:31:58.000Z</time>
      </trkpt>
      <trkpt lat="43.38198" lon="6.4588">
        <ele>114</ele>
        <time>2026-01-21T14:32:07.000Z</time>
      </trkpt>
      <trkpt lat="43.38198" lon="6.45866">
        <ele>114</ele>
        <time>2026-01-21T14:32:16.000Z</time>
      </trkpt>
      <trkpt lat="43.38201" lon="6.45854">
        <ele>114</ele>
        <time>2026-01-21T14:32:22.000Z</time>
      </trkpt>
      <trkpt lat="43.38206" lon="6.45839">
        <ele>113</ele>
        <time>2026-01-21T14:32:31.000Z</time>
      </trkpt>
      <trkpt lat="43.3821" lon="6.45827">
        <ele>113</ele>
        <time>2026-01-21T14:32:37.000Z</time>
      </trkpt>
      <trkpt lat="43.38212" lon="6.45815">
        <ele>113</ele>
        <time>2026-01-21T14:32:43.000Z</time>
      </trkpt>
      <trkpt lat="43.38216" lon="6.45804">
        <ele>113</ele>
        <time>2026-01-21T14:32:49.000Z</time>
      </trkpt>
      <trkpt lat="43.38221" lon="6.45791">
        <ele>113</ele>
        <time>2026-01-21T14:32:58.000Z</time>
      </trkpt>
      <trkpt lat="43.38223" lon="6.45774">
        <ele>113</ele>
        <time>2026-01-21T14:33:07.000Z</time>
      </trkpt>
      <trkpt lat="43.38225" lon="6.45757">
        <ele>113</ele>
        <time>2026-01-21T14:33:16.000Z</time>
      </trkpt>
      <trkpt lat="43.38228" lon="6.45745">
        <ele>113</ele>
        <time>2026-01-21T14:33:22.000Z</time>
      </trkpt>
      <trkpt lat="43.38229" lon="6.45732">
        <ele>114</ele>
        <time>2026-01-21T14:33:28.000Z</time>
      </trkpt>
      <trkpt lat="43.38229" lon="6.45717">
        <ele>114</ele>
        <time>2026-01-21T14:33:37.000Z</time>
      </trkpt>
      <trkpt lat="43.38229" lon="6.45702">
        <ele>114</ele>
        <time>2026-01-21T14:33:46.000Z</time>
      </trkpt>
      <trkpt lat="43.38231" lon="6.45689">
        <ele>115</ele>
        <time>2026-01-21T14:33:55.000Z</time>
      </trkpt>
      <trkpt lat="43.38233" lon="6.45677">
        <ele>115</ele>
        <time>2026-01-21T14:34:04.000Z</time>
      </trkpt>
      <trkpt lat="43.38233" lon="6.45664">
        <ele>114</ele>
        <time>2026-01-21T14:39:52.000Z</time>
      </trkpt>
      <trkpt lat="43.38235" lon="6.45652">
        <ele>113</ele>
        <time>2026-01-21T14:39:58.000Z</time>
      </trkpt>
      <trkpt lat="43.3824" lon="6.45639">
        <ele>113</ele>
        <time>2026-01-21T14:40:07.000Z</time>
      </trkpt>
      <trkpt lat="43.38246" lon="6.45624">
        <ele>112</ele>
        <time>2026-01-21T14:40:16.000Z</time>
      </trkpt>
      <trkpt lat="43.3825" lon="6.45611">
        <ele>111</ele>
        <time>2026-01-21T14:40:25.000Z</time>
      </trkpt>
      <trkpt lat="43.38254" lon="6.45598">
        <ele>110</ele>
        <time>2026-01-21T14:40:34.000Z</time>
      </trkpt>
      <trkpt lat="43.38255" lon="6.45584">
        <ele>110</ele>
        <time>2026-01-21T14:40:40.000Z</time>
      </trkpt>
      <trkpt lat="43.38258" lon="6.45572">
        <ele>110</ele>
        <time>2026-01-21T14:40:46.000Z</time>
      </trkpt>
      <trkpt lat="43.38262" lon="6.45558">
        <ele>110</ele>
        <time>2026-01-21T14:40:55.000Z</time>
      </trkpt>
      <trkpt lat="43.38266" lon="6.45544">
        <ele>109</ele>
        <time>2026-01-21T14:41:04.000Z</time>
      </trkpt>
      <trkpt lat="43.38271" lon="6.45531">
        <ele>109</ele>
        <time>2026-01-21T14:41:13.000Z</time>
      </trkpt>
      <trkpt lat="43.38276" lon="6.45517">
        <ele>109</ele>
        <time>2026-01-21T14:41:22.000Z</time>
      </trkpt>
      <trkpt lat="43.38282" lon="6.45503">
        <ele>109</ele>
        <time>2026-01-21T14:41:31.000Z</time>
      </trkpt>
      <trkpt lat="43.3829" lon="6.4549">
        <ele>108</ele>
        <time>2026-01-21T14:41:40.000Z</time>
      </trkpt>
      <trkpt lat="43.38301" lon="6.45485">
        <ele>108</ele>
        <time>2026-01-21T14:41:49.000Z</time>
      </trkpt>
      <trkpt lat="43.38313" lon="6.4548">
        <ele>107</ele>
        <time>2026-01-21T14:41:58.000Z</time>
      </trkpt>
      <trkpt lat="43.38323" lon="6.45477">
        <ele>106</ele>
        <time>2026-01-21T14:42:07.000Z</time>
      </trkpt>
      <trkpt lat="43.38333" lon="6.45475">
        <ele>106</ele>
        <time>2026-01-21T14:42:13.000Z</time>
      </trkpt>
      <trkpt lat="43.38344" lon="6.45476">
        <ele>105</ele>
        <time>2026-01-21T14:42:22.000Z</time>
      </trkpt>
      <trkpt lat="43.38354" lon="6.45472">
        <ele>105</ele>
        <time>2026-01-21T14:42:31.000Z</time>
      </trkpt>
      <trkpt lat="43.38363" lon="6.45469">
        <ele>105</ele>
        <time>2026-01-21T14:42:40.000Z</time>
      </trkpt>
      <trkpt lat="43.38372" lon="6.45467">
        <ele>105</ele>
        <time>2026-01-21T14:42:46.000Z</time>
      </trkpt>
      <trkpt lat="43.38383" lon="6.45464">
        <ele>105</ele>
        <time>2026-01-21T14:42:57.000Z</time>
      </trkpt>
      <trkpt lat="43.38393" lon="6.45462">
        <ele>105</ele>
        <time>2026-01-21T14:43:03.000Z</time>
      </trkpt>
      <trkpt lat="43.38404" lon="6.45461">
        <ele>105</ele>
        <time>2026-01-21T14:43:12.000Z</time>
      </trkpt>
      <trkpt lat="43.38415" lon="6.45458">
        <ele>105</ele>
        <time>2026-01-21T14:43:21.000Z</time>
      </trkpt>
      <trkpt lat="43.38426" lon="6.45456">
        <ele>105</ele>
        <time>2026-01-21T14:43:30.000Z</time>
      </trkpt>
      <trkpt lat="43.38436" lon="6.4545">
        <ele>105</ele>
        <time>2026-01-21T14:43:39.000Z</time>
      </trkpt>
      <trkpt lat="43.38446" lon="6.45445">
        <ele>105</ele>
        <time>2026-01-21T14:43:48.000Z</time>
      </trkpt>
      <trkpt lat="43.38455" lon="6.45438">
        <ele>105</ele>
        <time>2026-01-21T14:43:57.000Z</time>
      </trkpt>
      <trkpt lat="43.38466" lon="6.45435">
        <ele>104</ele>
        <time>2026-01-21T14:44:03.000Z</time>
      </trkpt>
      <trkpt lat="43.38479" lon="6.45434">
        <ele>104</ele>
        <time>2026-01-21T14:44:12.000Z</time>
      </trkpt>
      <trkpt lat="43.38489" lon="6.45432">
        <ele>104</ele>
        <time>2026-01-21T14:44:18.000Z</time>
      </trkpt>
      <trkpt lat="43.385" lon="6.45429">
        <ele>104</ele>
        <time>2026-01-21T14:44:27.000Z</time>
      </trkpt>
      <trkpt lat="43.38512" lon="6.45425">
        <ele>104</ele>
        <time>2026-01-21T14:44:36.000Z</time>
      </trkpt>
      <trkpt lat="43.38521" lon="6.4542">
        <ele>104</ele>
        <time>2026-01-21T14:44:45.000Z</time>
      </trkpt>
      <trkpt lat="43.38533" lon="6.45419">
        <ele>104</ele>
        <time>2026-01-21T14:44:54.000Z</time>
      </trkpt>
      <trkpt lat="43.38544" lon="6.45415">
        <ele>104</ele>
        <time>2026-01-21T14:45:03.000Z</time>
      </trkpt>
      <trkpt lat="43.38554" lon="6.45406">
        <ele>104</ele>
        <time>2026-01-21T14:45:12.000Z</time>
      </trkpt>
      <trkpt lat="43.38563" lon="6.454">
        <ele>103</ele>
        <time>2026-01-21T14:45:21.000Z</time>
      </trkpt>
      <trkpt lat="43.38572" lon="6.45397">
        <ele>103</ele>
        <time>2026-01-21T14:45:27.000Z</time>
      </trkpt>
      <trkpt lat="43.38579" lon="6.45391">
        <ele>103</ele>
        <time>2026-01-21T14:45:33.000Z</time>
      </trkpt>
      <trkpt lat="43.38586" lon="6.45387">
        <ele>103</ele>
        <time>2026-01-21T14:45:39.000Z</time>
      </trkpt>
      <trkpt lat="43.38579" lon="6.45395">
        <ele>103</ele>
        <time>2026-01-21T14:46:03.000Z</time>
      </trkpt>
      <trkpt lat="43.38569" lon="6.45403">
        <ele>102</ele>
        <time>2026-01-21T14:46:12.000Z</time>
      </trkpt>
      <trkpt lat="43.38561" lon="6.45408">
        <ele>102</ele>
        <time>2026-01-21T14:46:18.000Z</time>
      </trkpt>
      <trkpt lat="43.38553" lon="6.45413">
        <ele>102</ele>
        <time>2026-01-21T14:46:24.000Z</time>
      </trkpt>
      <trkpt lat="43.38544" lon="6.45418">
        <ele>102</ele>
        <time>2026-01-21T14:46:33.000Z</time>
      </trkpt>
      <trkpt lat="43.38533" lon="6.45422">
        <ele>102</ele>
        <time>2026-01-21T14:46:42.000Z</time>
      </trkpt>
      <trkpt lat="43.38523" lon="6.45425">
        <ele>102</ele>
        <time>2026-01-21T14:46:51.000Z</time>
      </trkpt>
      <trkpt lat="43.38521" lon="6.45436">
        <ele>102</ele>
        <time>2026-01-21T14:47:00.000Z</time>
      </trkpt>
      <trkpt lat="43.38528" lon="6.45445">
        <ele>102</ele>
        <time>2026-01-21T14:47:09.000Z</time>
      </trkpt>
      <trkpt lat="43.38538" lon="6.45449">
        <ele>101</ele>
        <time>2026-01-21T14:47:18.000Z</time>
      </trkpt>
      <trkpt lat="43.38547" lon="6.45459">
        <ele>101</ele>
        <time>2026-01-21T14:47:27.000Z</time>
      </trkpt>
      <trkpt lat="43.38553" lon="6.45469">
        <ele>101</ele>
        <time>2026-01-21T14:47:33.000Z</time>
      </trkpt>
      <trkpt lat="43.38559" lon="6.45482">
        <ele>100</ele>
        <time>2026-01-21T14:47:42.000Z</time>
      </trkpt>
      <trkpt lat="43.38565" lon="6.45495">
        <ele>100</ele>
        <time>2026-01-21T14:47:51.000Z</time>
      </trkpt>
      <trkpt lat="43.3857" lon="6.45509">
        <ele>99</ele>
        <time>2026-01-21T14:48:00.000Z</time>
      </trkpt>
      <trkpt lat="43.38575" lon="6.4552">
        <ele>99</ele>
        <time>2026-01-21T14:48:06.000Z</time>
      </trkpt>
      <trkpt lat="43.38582" lon="6.45534">
        <ele>98</ele>
        <time>2026-01-21T14:48:15.000Z</time>
      </trkpt>
      <trkpt lat="43.38587" lon="6.45548">
        <ele>98</ele>
        <time>2026-01-21T14:48:24.000Z</time>
      </trkpt>
      <trkpt lat="43.3859" lon="6.45563">
        <ele>98</ele>
        <time>2026-01-21T14:48:33.000Z</time>
      </trkpt>
      <trkpt lat="43.38594" lon="6.45576">
        <ele>98</ele>
        <time>2026-01-21T14:48:42.000Z</time>
      </trkpt>
      <trkpt lat="43.38601" lon="6.45586">
        <ele>97</ele>
        <time>2026-01-21T14:48:51.000Z</time>
      </trkpt>
      <trkpt lat="43.3861" lon="6.4559">
        <ele>97</ele>
        <time>2026-01-21T14:49:00.000Z</time>
      </trkpt>
      <trkpt lat="43.38622" lon="6.45593">
        <ele>97</ele>
        <time>2026-01-21T14:49:09.000Z</time>
      </trkpt>
      <trkpt lat="43.38634" lon="6.45593">
        <ele>97</ele>
        <time>2026-01-21T14:49:18.000Z</time>
      </trkpt>
      <trkpt lat="43.38646" lon="6.4559">
        <ele>97</ele>
        <time>2026-01-21T14:49:27.000Z</time>
      </trkpt>
      <trkpt lat="43.38654" lon="6.45584">
        <ele>97</ele>
        <time>2026-01-21T14:49:36.000Z</time>
      </trkpt>
      <trkpt lat="43.38663" lon="6.4558">
        <ele>97</ele>
        <time>2026-01-21T14:49:42.000Z</time>
      </trkpt>
      <trkpt lat="43.38674" lon="6.45581">
        <ele>97</ele>
        <time>2026-01-21T14:49:51.000Z</time>
      </trkpt>
      <trkpt lat="43.38685" lon="6.45583">
        <ele>96</ele>
        <time>2026-01-21T14:50:00.000Z</time>
      </trkpt>
      <trkpt lat="43.38695" lon="6.4559">
        <ele>96</ele>
        <time>2026-01-21T14:50:09.000Z</time>
      </trkpt>
      <trkpt lat="43.38699" lon="6.45603">
        <ele>95</ele>
        <time>2026-01-21T14:50:18.000Z</time>
      </trkpt>
      <trkpt lat="43.38699" lon="6.45618">
        <ele>95</ele>
        <time>2026-01-21T14:50:27.000Z</time>
      </trkpt>
      <trkpt lat="43.38698" lon="6.45631">
        <ele>95</ele>
        <time>2026-01-21T14:50:36.000Z</time>
      </trkpt>
      <trkpt lat="43.387" lon="6.45644">
        <ele>94</ele>
        <time>2026-01-21T14:50:42.000Z</time>
      </trkpt>
      <trkpt lat="43.387" lon="6.45657">
        <ele>94</ele>
        <time>2026-01-21T14:50:51.000Z</time>
      </trkpt>
      <trkpt lat="43.387" lon="6.45672">
        <ele>94</ele>
        <time>2026-01-21T14:51:00.000Z</time>
      </trkpt>
      <trkpt lat="43.38699" lon="6.45687">
        <ele>94</ele>
        <time>2026-01-21T14:51:09.000Z</time>
      </trkpt>
      <trkpt lat="43.38699" lon="6.45703">
        <ele>94</ele>
        <time>2026-01-21T14:51:18.000Z</time>
      </trkpt>
      <trkpt lat="43.38699" lon="6.45719">
        <ele>94</ele>
        <time>2026-01-21T14:51:27.000Z</time>
      </trkpt>
      <trkpt lat="43.38698" lon="6.45734">
        <ele>94</ele>
        <time>2026-01-21T14:51:39.000Z</time>
      </trkpt>
      <trkpt lat="43.38701" lon="6.45748">
        <ele>94</ele>
        <time>2026-01-21T14:51:48.000Z</time>
      </trkpt>
      <trkpt lat="43.38707" lon="6.4576">
        <ele>94</ele>
        <time>2026-01-21T14:51:57.000Z</time>
      </trkpt>
      <trkpt lat="43.38717" lon="6.45766">
        <ele>94</ele>
        <time>2026-01-21T14:52:06.000Z</time>
      </trkpt>
      <trkpt lat="43.38728" lon="6.45765">
        <ele>94</ele>
        <time>2026-01-21T14:52:15.000Z</time>
      </trkpt>
      <trkpt lat="43.38739" lon="6.45761">
        <ele>94</ele>
        <time>2026-01-21T14:52:27.000Z</time>
      </trkpt>
      <trkpt lat="43.38747" lon="6.45768">
        <ele>94</ele>
        <time>2026-01-21T14:52:36.000Z</time>
      </trkpt>
      <trkpt lat="43.38749" lon="6.45782">
        <ele>94</ele>
        <time>2026-01-21T14:52:45.000Z</time>
      </trkpt>
      <trkpt lat="43.3875" lon="6.45797">
        <ele>95</ele>
        <time>2026-01-21T14:52:54.000Z</time>
      </trkpt>
      <trkpt lat="43.38749" lon="6.45811">
        <ele>95</ele>
        <time>2026-01-21T14:53:06.000Z</time>
      </trkpt>
      <trkpt lat="43.38754" lon="6.45819">
        <ele>95</ele>
        <time>2026-01-21T14:56:13.000Z</time>
      </trkpt>
      <trkpt lat="43.38762" lon="6.45824">
        <ele>95</ele>
        <time>2026-01-21T14:56:19.000Z</time>
      </trkpt>
      <trkpt lat="43.3877" lon="6.45833">
        <ele>95</ele>
        <time>2026-01-21T14:56:28.000Z</time>
      </trkpt>
      <trkpt lat="43.38779" lon="6.45837">
        <ele>95</ele>
        <time>2026-01-21T14:56:37.000Z</time>
      </trkpt>
      <trkpt lat="43.3879" lon="6.45842">
        <ele>95</ele>
        <time>2026-01-21T14:56:46.000Z</time>
      </trkpt>
      <trkpt lat="43.388" lon="6.45847">
        <ele>94</ele>
        <time>2026-01-21T14:56:55.000Z</time>
      </trkpt>
      <trkpt lat="43.38811" lon="6.45848">
        <ele>94</ele>
        <time>2026-01-21T14:57:04.000Z</time>
      </trkpt>
      <trkpt lat="43.38822" lon="6.45846">
        <ele>94</ele>
        <time>2026-01-21T14:57:16.000Z</time>
      </trkpt>
      <trkpt lat="43.38829" lon="6.45855">
        <ele>94</ele>
        <time>2026-01-21T14:57:25.000Z</time>
      </trkpt>
      <trkpt lat="43.38839" lon="6.45855">
        <ele>94</ele>
        <time>2026-01-21T14:57:37.000Z</time>
      </trkpt>
      <trkpt lat="43.3885" lon="6.45853">
        <ele>94</ele>
        <time>2026-01-21T14:57:46.000Z</time>
      </trkpt>
      <trkpt lat="43.3886" lon="6.45851">
        <ele>95</ele>
        <time>2026-01-21T14:57:55.000Z</time>
      </trkpt>
      <trkpt lat="43.38869" lon="6.45852">
        <ele>95</ele>
        <time>2026-01-21T14:58:07.000Z</time>
      </trkpt>
      <trkpt lat="43.38879" lon="6.45849">
        <ele>95</ele>
        <time>2026-01-21T14:58:16.000Z</time>
      </trkpt>
      <trkpt lat="43.38889" lon="6.45846">
        <ele>95</ele>
        <time>2026-01-21T14:58:28.000Z</time>
      </trkpt>
      <trkpt lat="43.38898" lon="6.45837">
        <ele>95</ele>
        <time>2026-01-21T14:58:40.000Z</time>
      </trkpt>
      <trkpt lat="43.38904" lon="6.45827">
        <ele>94</ele>
        <time>2026-01-21T14:58:49.000Z</time>
      </trkpt>
      <trkpt lat="43.38912" lon="6.45817">
        <ele>94</ele>
        <time>2026-01-21T14:58:58.000Z</time>
      </trkpt>
      <trkpt lat="43.38922" lon="6.45811">
        <ele>93</ele>
        <time>2026-01-21T14:59:07.000Z</time>
      </trkpt>
      <trkpt lat="43.38932" lon="6.45806">
        <ele>93</ele>
        <time>2026-01-21T14:59:16.000Z</time>
      </trkpt>
      <trkpt lat="43.38941" lon="6.45802">
        <ele>93</ele>
        <time>2026-01-21T14:59:22.000Z</time>
      </trkpt>
      <trkpt lat="43.38949" lon="6.45803">
        <ele>93</ele>
        <time>2026-01-21T14:59:28.000Z</time>
      </trkpt>
      <trkpt lat="43.38958" lon="6.45806">
        <ele>93</ele>
        <time>2026-01-21T14:59:34.000Z</time>
      </trkpt>
      <trkpt lat="43.38968" lon="6.4581">
        <ele>93</ele>
        <time>2026-01-21T14:59:43.000Z</time>
      </trkpt>
      <trkpt lat="43.38978" lon="6.45807">
        <ele>93</ele>
        <time>2026-01-21T14:59:52.000Z</time>
      </trkpt>
      <trkpt lat="43.38987" lon="6.45805">
        <ele>93</ele>
        <time>2026-01-21T15:00:01.000Z</time>
      </trkpt>
      <trkpt lat="43.38997" lon="6.458">
        <ele>93</ele>
        <time>2026-01-21T15:00:10.000Z</time>
      </trkpt>
      <trkpt lat="43.39006" lon="6.45794">
        <ele>93</ele>
        <time>2026-01-21T15:00:19.000Z</time>
      </trkpt>
      <trkpt lat="43.39014" lon="6.45787">
        <ele>93</ele>
        <time>2026-01-21T15:00:34.000Z</time>
      </trkpt>
      <trkpt lat="43.39019" lon="6.45775">
        <ele>93</ele>
        <time>2026-01-21T15:00:43.000Z</time>
      </trkpt>
      <trkpt lat="43.39023" lon="6.45761">
        <ele>93</ele>
        <time>2026-01-21T15:00:52.000Z</time>
      </trkpt>
      <trkpt lat="43.39026" lon="6.45748">
        <ele>93</ele>
        <time>2026-01-21T15:01:01.000Z</time>
      </trkpt>
      <trkpt lat="43.39031" lon="6.45734">
        <ele>93</ele>
        <time>2026-01-21T15:01:10.000Z</time>
      </trkpt>
      <trkpt lat="43.39037" lon="6.45723">
        <ele>93</ele>
        <time>2026-01-21T15:01:19.000Z</time>
      </trkpt>
      <trkpt lat="43.39044" lon="6.45712">
        <ele>93</ele>
        <time>2026-01-21T15:01:28.000Z</time>
      </trkpt>
      <trkpt lat="43.39051" lon="6.45701">
        <ele>93</ele>
        <time>2026-01-21T15:01:37.000Z</time>
      </trkpt>
      <trkpt lat="43.39057" lon="6.4569">
        <ele>93</ele>
        <time>2026-01-21T15:01:46.000Z</time>
      </trkpt>
      <trkpt lat="43.39065" lon="6.45678">
        <ele>93</ele>
        <time>2026-01-21T15:01:55.000Z</time>
      </trkpt>
      <trkpt lat="43.39074" lon="6.45672">
        <ele>93</ele>
        <time>2026-01-21T15:02:04.000Z</time>
      </trkpt>
      <trkpt lat="43.39084" lon="6.4567">
        <ele>93</ele>
        <time>2026-01-21T15:02:13.000Z</time>
      </trkpt>
      <trkpt lat="43.39095" lon="6.45668">
        <ele>94</ele>
        <time>2026-01-21T15:02:22.000Z</time>
      </trkpt>
      <trkpt lat="43.39106" lon="6.45667">
        <ele>94</ele>
        <time>2026-01-21T15:02:31.000Z</time>
      </trkpt>
      <trkpt lat="43.39116" lon="6.45666">
        <ele>94</ele>
        <time>2026-01-21T15:02:40.000Z</time>
      </trkpt>
      <trkpt lat="43.39127" lon="6.45663">
        <ele>94</ele>
        <time>2026-01-21T15:02:49.000Z</time>
      </trkpt>
      <trkpt lat="43.39137" lon="6.4566">
        <ele>94</ele>
        <time>2026-01-21T15:02:58.000Z</time>
      </trkpt>
      <trkpt lat="43.39148" lon="6.45658">
        <ele>94</ele>
        <time>2026-01-21T15:03:07.000Z</time>
      </trkpt>
      <trkpt lat="43.39159" lon="6.45656">
        <ele>93</ele>
        <time>2026-01-21T15:03:16.000Z</time>
      </trkpt>
      <trkpt lat="43.39169" lon="6.45653">
        <ele>94</ele>
        <time>2026-01-21T15:03:25.000Z</time>
      </trkpt>
      <trkpt lat="43.39179" lon="6.45649">
        <ele>93</ele>
        <time>2026-01-21T15:03:34.000Z</time>
      </trkpt>
      <trkpt lat="43.39188" lon="6.45643">
        <ele>93</ele>
        <time>2026-01-21T15:03:43.000Z</time>
      </trkpt>
      <trkpt lat="43.39197" lon="6.45636">
        <ele>93</ele>
        <time>2026-01-21T15:03:52.000Z</time>
      </trkpt>
      <trkpt lat="43.39207" lon="6.45632">
        <ele>92</ele>
        <time>2026-01-21T15:04:07.000Z</time>
      </trkpt>
      <trkpt lat="43.39214" lon="6.45624">
        <ele>92</ele>
        <time>2026-01-21T15:04:16.000Z</time>
      </trkpt>
      <trkpt lat="43.39224" lon="6.45616">
        <ele>91</ele>
        <time>2026-01-21T15:04:25.000Z</time>
      </trkpt>
      <trkpt lat="43.39235" lon="6.4561">
        <ele>91</ele>
        <time>2026-01-21T15:04:37.000Z</time>
      </trkpt>
      <trkpt lat="43.39244" lon="6.45604">
        <ele>90</ele>
        <time>2026-01-21T15:04:46.000Z</time>
      </trkpt>
      <trkpt lat="43.39253" lon="6.456">
        <ele>90</ele>
        <time>2026-01-21T15:04:55.000Z</time>
      </trkpt>
      <trkpt lat="43.39261" lon="6.45592">
        <ele>90</ele>
        <time>2026-01-21T15:05:04.000Z</time>
      </trkpt>
      <trkpt lat="43.39267" lon="6.45578">
        <ele>90</ele>
        <time>2026-01-21T15:05:13.000Z</time>
      </trkpt>
      <trkpt lat="43.39271" lon="6.45567">
        <ele>90</ele>
        <time>2026-01-21T15:05:22.000Z</time>
      </trkpt>
      <trkpt lat="43.39272" lon="6.45552">
        <ele>90</ele>
        <time>2026-01-21T15:05:31.000Z</time>
      </trkpt>
      <trkpt lat="43.39275" lon="6.45537">
        <ele>90</ele>
        <time>2026-01-21T15:05:40.000Z</time>
      </trkpt>
      <trkpt lat="43.39282" lon="6.45527">
        <ele>90</ele>
        <time>2026-01-21T15:05:49.000Z</time>
      </trkpt>
      <trkpt lat="43.39293" lon="6.45521">
        <ele>90</ele>
        <time>2026-01-21T15:05:58.000Z</time>
      </trkpt>
      <trkpt lat="43.39302" lon="6.45515">
        <ele>90</ele>
        <time>2026-01-21T15:06:07.000Z</time>
      </trkpt>
      <trkpt lat="43.39313" lon="6.45511">
        <ele>90</ele>
        <time>2026-01-21T15:06:16.000Z</time>
      </trkpt>
      <trkpt lat="43.39324" lon="6.45507">
        <ele>90</ele>
        <time>2026-01-21T15:06:25.000Z</time>
      </trkpt>
      <trkpt lat="43.39335" lon="6.45506">
        <ele>90</ele>
        <time>2026-01-21T15:06:34.000Z</time>
      </trkpt>
      <trkpt lat="43.39346" lon="6.45506">
        <ele>90</ele>
        <time>2026-01-21T15:06:43.000Z</time>
      </trkpt>
      <trkpt lat="43.39356" lon="6.45507">
        <ele>90</ele>
        <time>2026-01-21T15:06:52.000Z</time>
      </trkpt>
      <trkpt lat="43.39365" lon="6.45512">
        <ele>90</ele>
        <time>2026-01-21T15:12:28.000Z</time>
      </trkpt>
      <trkpt lat="43.39373" lon="6.45522">
        <ele>90</ele>
        <time>2026-01-21T15:12:34.000Z</time>
      </trkpt>
      <trkpt lat="43.39381" lon="6.45533">
        <ele>91</ele>
        <time>2026-01-21T15:12:43.000Z</time>
      </trkpt>
      <trkpt lat="43.39387" lon="6.45544">
        <ele>91</ele>
        <time>2026-01-21T15:12:52.000Z</time>
      </trkpt>
      <trkpt lat="43.39393" lon="6.45554">
        <ele>91</ele>
        <time>2026-01-21T15:12:58.000Z</time>
      </trkpt>
      <trkpt lat="43.39399" lon="6.45568">
        <ele>91</ele>
        <time>2026-01-21T15:13:07.000Z</time>
      </trkpt>
      <trkpt lat="43.39403" lon="6.45584">
        <ele>91</ele>
        <time>2026-01-21T15:13:16.000Z</time>
      </trkpt>
      <trkpt lat="43.39403" lon="6.45598">
        <ele>91</ele>
        <time>2026-01-21T15:13:25.000Z</time>
      </trkpt>
      <trkpt lat="43.39401" lon="6.45611">
        <ele>92</ele>
        <time>2026-01-21T15:13:31.000Z</time>
      </trkpt>
      <trkpt lat="43.39402" lon="6.45623">
        <ele>92</ele>
        <time>2026-01-21T15:13:37.000Z</time>
      </trkpt>
      <trkpt lat="43.39406" lon="6.45636">
        <ele>92</ele>
        <time>2026-01-21T15:13:46.000Z</time>
      </trkpt>
      <trkpt lat="43.39413" lon="6.45644">
        <ele>92</ele>
        <time>2026-01-21T15:13:55.000Z</time>
      </trkpt>
      <trkpt lat="43.39422" lon="6.45642">
        <ele>93</ele>
        <time>2026-01-21T15:14:04.000Z</time>
      </trkpt>
      <trkpt lat="43.3943" lon="6.45637">
        <ele>93</ele>
        <time>2026-01-21T15:14:10.000Z</time>
      </trkpt>
      <trkpt lat="43.39439" lon="6.45627">
        <ele>93</ele>
        <time>2026-01-21T15:14:19.000Z</time>
      </trkpt>
      <trkpt lat="43.39446" lon="6.45615">
        <ele>93</ele>
        <time>2026-01-21T15:14:28.000Z</time>
      </trkpt>
      <trkpt lat="43.3945" lon="6.45604">
        <ele>93</ele>
        <time>2026-01-21T15:14:34.000Z</time>
      </trkpt>
      <trkpt lat="43.39454" lon="6.45592">
        <ele>94</ele>
        <time>2026-01-21T15:14:40.000Z</time>
      </trkpt>
      <trkpt lat="43.39457" lon="6.45579">
        <ele>94</ele>
        <time>2026-01-21T15:14:49.000Z</time>
      </trkpt>
      <trkpt lat="43.39462" lon="6.45565">
        <ele>94</ele>
        <time>2026-01-21T15:14:58.000Z</time>
      </trkpt>
      <trkpt lat="43.3947" lon="6.45555">
        <ele>94</ele>
        <time>2026-01-21T15:15:07.000Z</time>
      </trkpt>
      <trkpt lat="43.39479" lon="6.45549">
        <ele>93</ele>
        <time>2026-01-21T15:15:16.000Z</time>
      </trkpt>
      <trkpt lat="43.39482" lon="6.45538">
        <ele>92</ele>
        <time>2026-01-21T15:15:28.000Z</time>
      </trkpt>
      <trkpt lat="43.39488" lon="6.45527">
        <ele>91</ele>
        <time>2026-01-21T15:15:40.000Z</time>
      </trkpt>
      <trkpt lat="43.39496" lon="6.4552">
        <ele>90</ele>
        <time>2026-01-21T15:15:49.000Z</time>
      </trkpt>
      <trkpt lat="43.39506" lon="6.4552">
        <ele>90</ele>
        <time>2026-01-21T15:16:07.000Z</time>
      </trkpt>
      <trkpt lat="43.39515" lon="6.45525">
        <ele>90</ele>
        <time>2026-01-21T15:16:16.000Z</time>
      </trkpt>
      <trkpt lat="43.39523" lon="6.45531">
        <ele>90</ele>
        <time>2026-01-21T15:16:25.000Z</time>
      </trkpt>
      <trkpt lat="43.39532" lon="6.45535">
        <ele>90</ele>
        <time>2026-01-21T15:16:34.000Z</time>
      </trkpt>
      <trkpt lat="43.39542" lon="6.45539">
        <ele>91</ele>
        <time>2026-01-21T15:16:43.000Z</time>
      </trkpt>
      <trkpt lat="43.39552" lon="6.4554">
        <ele>91</ele>
        <time>2026-01-21T15:16:52.000Z</time>
      </trkpt>
      <trkpt lat="43.39564" lon="6.45541">
        <ele>91</ele>
        <time>2026-01-21T15:17:01.000Z</time>
      </trkpt>
      <trkpt lat="43.39573" lon="6.45548">
        <ele>91</ele>
        <time>2026-01-21T15:17:10.000Z</time>
      </trkpt>
      <trkpt lat="43.39584" lon="6.45553">
        <ele>91</ele>
        <time>2026-01-21T15:17:22.000Z</time>
      </trkpt>
      <trkpt lat="43.39595" lon="6.45557">
        <ele>92</ele>
        <time>2026-01-21T15:17:31.000Z</time>
      </trkpt>
      <trkpt lat="43.39604" lon="6.45558">
        <ele>92</ele>
        <time>2026-01-21T15:17:40.000Z</time>
      </trkpt>
      <trkpt lat="43.39616" lon="6.45561">
        <ele>93</ele>
        <time>2026-01-21T15:17:49.000Z</time>
      </trkpt>
      <trkpt lat="43.39625" lon="6.45566">
        <ele>93</ele>
        <time>2026-01-21T15:17:58.000Z</time>
      </trkpt>
      <trkpt lat="43.39635" lon="6.45569">
        <ele>93</ele>
        <time>2026-01-21T15:18:07.000Z</time>
      </trkpt>
      <trkpt lat="43.39644" lon="6.45573">
        <ele>93</ele>
        <time>2026-01-21T15:18:16.000Z</time>
      </trkpt>
      <trkpt lat="43.39653" lon="6.4558">
        <ele>93</ele>
        <time>2026-01-21T15:20:31.000Z</time>
      </trkpt>
      <trkpt lat="43.39663" lon="6.45585">
        <ele>93</ele>
        <time>2026-01-21T15:20:43.000Z</time>
      </trkpt>
      <trkpt lat="43.39671" lon="6.45592">
        <ele>93</ele>
        <time>2026-01-21T15:20:49.000Z</time>
      </trkpt>
      <trkpt lat="43.39679" lon="6.45601">
        <ele>93</ele>
        <time>2026-01-21T15:20:58.000Z</time>
      </trkpt>
      <trkpt lat="43.39688" lon="6.45608">
        <ele>93</ele>
        <time>2026-01-21T15:21:07.000Z</time>
      </trkpt>
      <trkpt lat="43.39699" lon="6.45613">
        <ele>93</ele>
        <time>2026-01-21T15:21:19.000Z</time>
      </trkpt>
      <trkpt lat="43.39709" lon="6.45607">
        <ele>93</ele>
        <time>2026-01-21T15:21:29.000Z</time>
      </trkpt>
      <trkpt lat="43.39716" lon="6.45595">
        <ele>93</ele>
        <time>2026-01-21T15:21:38.000Z</time>
      </trkpt>
      <trkpt lat="43.39723" lon="6.45582">
        <ele>92</ele>
        <time>2026-01-21T15:21:50.000Z</time>
      </trkpt>
      <trkpt lat="43.3973" lon="6.45569">
        <ele>92</ele>
        <time>2026-01-21T15:21:59.000Z</time>
      </trkpt>
      <trkpt lat="43.39734" lon="6.45556">
        <ele>91</ele>
        <time>2026-01-21T15:22:11.000Z</time>
      </trkpt>
      <trkpt lat="43.39731" lon="6.45543">
        <ele>91</ele>
        <time>2026-01-21T15:22:23.000Z</time>
      </trkpt>
      <trkpt lat="43.39726" lon="6.45534">
        <ele>91</ele>
        <time>2026-01-21T15:22:29.000Z</time>
      </trkpt>
      <trkpt lat="43.39721" lon="6.45523">
        <ele>91</ele>
        <time>2026-01-21T15:22:38.000Z</time>
      </trkpt>
      <trkpt lat="43.39713" lon="6.45513">
        <ele>90</ele>
        <time>2026-01-21T15:22:50.000Z</time>
      </trkpt>
      <trkpt lat="43.39706" lon="6.45503">
        <ele>90</ele>
        <time>2026-01-21T15:22:59.000Z</time>
      </trkpt>
      <trkpt lat="43.39698" lon="6.45495">
        <ele>90</ele>
        <time>2026-01-21T15:23:08.000Z</time>
      </trkpt>
      <trkpt lat="43.3969" lon="6.45484">
        <ele>90</ele>
        <time>2026-01-21T15:23:20.000Z</time>
      </trkpt>
      <trkpt lat="43.39682" lon="6.45476">
        <ele>90</ele>
        <time>2026-01-21T15:23:29.000Z</time>
      </trkpt>
      <trkpt lat="43.39675" lon="6.45466">
        <ele>89</ele>
        <time>2026-01-21T15:23:38.000Z</time>
      </trkpt>
      <trkpt lat="43.39669" lon="6.45457">
        <ele>89</ele>
        <time>2026-01-21T15:23:44.000Z</time>
      </trkpt>
      <trkpt lat="43.39663" lon="6.45446">
        <ele>88</ele>
        <time>2026-01-21T15:23:53.000Z</time>
      </trkpt>
    </trkseg>
  </trk>
</gpx>